<?xml version="1.0" encoding="UTF-8" standalone="no" ?>
<gpx xmlns="http://www.topografix.com/GPX/1/1" xmlns:xsi="http://www.w3.org/2001/XMLSchema-instance" xsi:schemaLocation="http://www.topografix.com/GPX/1/1 http://www.topografix.com/GPX/1/1/gpx.xsd" version="1.1" creator="VisuGPX - https://www.visugpx.com">
  <metadata>
    <name>le soum de Hailla</name>
    <desc><![CDATA[le soum de Hailla en boucle depuis Sainte Marie de Campan
monter par le courtaou d\'Empièyre  puis  redescendre sur\" les cabanettes\";  à partir de là  suivre les balises jaunes qui ramènent au point de départ]]></desc>
  </metadata>
  <trk>
    <name><![CDATA[le soum de Hailla_1]]></name>
    <trkseg>
      <trkpt lat="42.98478" lon="0.22607">
        <ele>863</ele>
        <time>2014-11-08T09:07:11Z</time>
      </trkpt>
      <trkpt lat="42.9844" lon="0.22613">
        <ele>865</ele>
        <time>2014-11-08T09:10:47Z</time>
      </trkpt>
      <trkpt lat="42.98448" lon="0.22608">
        <ele>865</ele>
        <time>2014-11-08T09:11:50Z</time>
      </trkpt>
      <trkpt lat="42.98447" lon="0.2259">
        <ele>866</ele>
        <time>2014-11-08T09:12:11Z</time>
      </trkpt>
      <trkpt lat="42.98442" lon="0.2258">
        <ele>880</ele>
        <time>2014-11-08T09:12:42Z</time>
      </trkpt>
      <trkpt lat="42.98444" lon="0.22573">
        <ele>881</ele>
        <time>2014-11-08T09:13:24Z</time>
      </trkpt>
      <trkpt lat="42.98447" lon="0.22567">
        <ele>882</ele>
        <time>2014-11-08T09:14:06Z</time>
      </trkpt>
      <trkpt lat="42.98448" lon="0.22561">
        <ele>883</ele>
        <time>2014-11-08T09:14:11Z</time>
      </trkpt>
      <trkpt lat="42.98451" lon="0.22554">
        <ele>885</ele>
        <time>2014-11-08T09:14:16Z</time>
      </trkpt>
      <trkpt lat="42.98454" lon="0.22548">
        <ele>886</ele>
        <time>2014-11-08T09:14:20Z</time>
      </trkpt>
      <trkpt lat="42.98465" lon="0.22533">
        <ele>889</ele>
        <time>2014-11-08T09:14:35Z</time>
      </trkpt>
      <trkpt lat="42.98468" lon="0.2253">
        <ele>890</ele>
        <time>2014-11-08T09:14:49Z</time>
      </trkpt>
      <trkpt lat="42.98468" lon="0.22523">
        <ele>891</ele>
        <time>2014-11-08T09:15:29Z</time>
      </trkpt>
      <trkpt lat="42.98475" lon="0.22513">
        <ele>894</ele>
        <time>2014-11-08T09:16:05Z</time>
      </trkpt>
      <trkpt lat="42.98485" lon="0.22503">
        <ele>898</ele>
        <time>2014-11-08T09:16:13Z</time>
      </trkpt>
      <trkpt lat="42.9849" lon="0.22499">
        <ele>910</ele>
        <time>2014-11-08T09:16:18Z</time>
      </trkpt>
      <trkpt lat="42.98508" lon="0.22493">
        <ele>906</ele>
        <time>2014-11-08T09:16:31Z</time>
      </trkpt>
      <trkpt lat="42.9853" lon="0.22473">
        <ele>905</ele>
        <time>2014-11-08T09:17:05Z</time>
      </trkpt>
      <trkpt lat="42.98537" lon="0.22461">
        <ele>906</ele>
        <time>2014-11-08T09:17:39Z</time>
      </trkpt>
      <trkpt lat="42.98557" lon="0.22424">
        <ele>906</ele>
        <time>2014-11-08T09:18:03Z</time>
      </trkpt>
      <trkpt lat="42.9856" lon="0.22411">
        <ele>908</ele>
        <time>2014-11-08T09:18:17Z</time>
      </trkpt>
      <trkpt lat="42.98551" lon="0.2241">
        <ele>910</ele>
        <time>2014-11-08T09:19:06Z</time>
      </trkpt>
      <trkpt lat="42.98517" lon="0.22416">
        <ele>920</ele>
        <time>2014-11-08T09:19:38Z</time>
      </trkpt>
      <trkpt lat="42.98509" lon="0.22408">
        <ele>922</ele>
        <time>2014-11-08T09:19:51Z</time>
      </trkpt>
      <trkpt lat="42.985" lon="0.22407">
        <ele>928</ele>
        <time>2014-11-08T09:20:38Z</time>
      </trkpt>
      <trkpt lat="42.98479" lon="0.22401">
        <ele>926</ele>
        <time>2014-11-08T09:20:55Z</time>
      </trkpt>
      <trkpt lat="42.98463" lon="0.22404">
        <ele>926</ele>
        <time>2014-11-08T09:21:21Z</time>
      </trkpt>
      <trkpt lat="42.98458" lon="0.22404">
        <ele>926</ele>
        <time>2014-11-08T09:21:26Z</time>
      </trkpt>
      <trkpt lat="42.98431" lon="0.22407">
        <ele>929</ele>
        <time>2014-11-08T09:21:47Z</time>
      </trkpt>
      <trkpt lat="42.98421" lon="0.2241">
        <ele>931</ele>
        <time>2014-11-08T09:21:54Z</time>
      </trkpt>
      <trkpt lat="42.98417" lon="0.22412">
        <ele>933</ele>
        <time>2014-11-08T09:21:59Z</time>
      </trkpt>
      <trkpt lat="42.98409" lon="0.22421">
        <ele>931</ele>
        <time>2014-11-08T09:22:16Z</time>
      </trkpt>
      <trkpt lat="42.98404" lon="0.22421">
        <ele>929</ele>
        <time>2014-11-08T09:22:23Z</time>
      </trkpt>
      <trkpt lat="42.98387" lon="0.22416">
        <ele>928</ele>
        <time>2014-11-08T09:22:42Z</time>
      </trkpt>
      <trkpt lat="42.98381" lon="0.22413">
        <ele>928</ele>
        <time>2014-11-08T09:22:46Z</time>
      </trkpt>
      <trkpt lat="42.98375" lon="0.22409">
        <ele>927</ele>
        <time>2014-11-08T09:22:48Z</time>
      </trkpt>
      <trkpt lat="42.98365" lon="0.22408">
        <ele>927</ele>
        <time>2014-11-08T09:22:56Z</time>
      </trkpt>
      <trkpt lat="42.98355" lon="0.22401">
        <ele>927</ele>
        <time>2014-11-08T09:23:05Z</time>
      </trkpt>
      <trkpt lat="42.98344" lon="0.22403">
        <ele>928</ele>
        <time>2014-11-08T09:23:13Z</time>
      </trkpt>
      <trkpt lat="42.9834" lon="0.22409">
        <ele>930</ele>
        <time>2014-11-08T09:23:26Z</time>
      </trkpt>
      <trkpt lat="42.98348" lon="0.2241">
        <ele>929</ele>
        <time>2014-11-08T09:23:47Z</time>
      </trkpt>
      <trkpt lat="42.98346" lon="0.22409">
        <ele>929</ele>
        <time>2014-11-08T09:24:09Z</time>
      </trkpt>
      <trkpt lat="42.98338" lon="0.22408">
        <ele>930</ele>
        <time>2014-11-08T09:24:16Z</time>
      </trkpt>
      <trkpt lat="42.98336" lon="0.22408">
        <ele>930</ele>
        <time>2014-11-08T09:24:18Z</time>
      </trkpt>
      <trkpt lat="42.98334" lon="0.22408">
        <ele>930</ele>
        <time>2014-11-08T09:24:20Z</time>
      </trkpt>
      <trkpt lat="42.9832" lon="0.22414">
        <ele>930</ele>
        <time>2014-11-08T09:24:35Z</time>
      </trkpt>
      <trkpt lat="42.98315" lon="0.22418">
        <ele>931</ele>
        <time>2014-11-08T09:24:44Z</time>
      </trkpt>
      <trkpt lat="42.98314" lon="0.22419">
        <ele>931</ele>
        <time>2014-11-08T09:24:46Z</time>
      </trkpt>
      <trkpt lat="42.98312" lon="0.22419">
        <ele>931</ele>
        <time>2014-11-08T09:24:48Z</time>
      </trkpt>
      <trkpt lat="42.98287" lon="0.2242">
        <ele>931</ele>
        <time>2014-11-08T09:25:18Z</time>
      </trkpt>
      <trkpt lat="42.98279" lon="0.22422">
        <ele>932</ele>
        <time>2014-11-08T09:25:26Z</time>
      </trkpt>
      <trkpt lat="42.9827" lon="0.22423">
        <ele>933</ele>
        <time>2014-11-08T09:25:36Z</time>
      </trkpt>
      <trkpt lat="42.98268" lon="0.22423">
        <ele>933</ele>
        <time>2014-11-08T09:25:38Z</time>
      </trkpt>
      <trkpt lat="42.98266" lon="0.22423">
        <ele>933</ele>
        <time>2014-11-08T09:25:40Z</time>
      </trkpt>
      <trkpt lat="42.98264" lon="0.22423">
        <ele>933</ele>
        <time>2014-11-08T09:25:42Z</time>
      </trkpt>
      <trkpt lat="42.98262" lon="0.22424">
        <ele>934</ele>
        <time>2014-11-08T09:25:44Z</time>
      </trkpt>
      <trkpt lat="42.9826" lon="0.22423">
        <ele>934</ele>
        <time>2014-11-08T09:25:46Z</time>
      </trkpt>
      <trkpt lat="42.98258" lon="0.22423">
        <ele>934</ele>
        <time>2014-11-08T09:25:48Z</time>
      </trkpt>
      <trkpt lat="42.98255" lon="0.22426">
        <ele>934</ele>
        <time>2014-11-08T09:25:52Z</time>
      </trkpt>
      <trkpt lat="42.98252" lon="0.22426">
        <ele>935</ele>
        <time>2014-11-08T09:25:55Z</time>
      </trkpt>
      <trkpt lat="42.9825" lon="0.22427">
        <ele>934</ele>
        <time>2014-11-08T09:25:57Z</time>
      </trkpt>
      <trkpt lat="42.98245" lon="0.22429">
        <ele>938</ele>
        <time>2014-11-08T09:26:04Z</time>
      </trkpt>
      <trkpt lat="42.98243" lon="0.2243">
        <ele>938</ele>
        <time>2014-11-08T09:26:07Z</time>
      </trkpt>
      <trkpt lat="42.98239" lon="0.22429">
        <ele>938</ele>
        <time>2014-11-08T09:26:13Z</time>
      </trkpt>
      <trkpt lat="42.98235" lon="0.2243">
        <ele>938</ele>
        <time>2014-11-08T09:26:26Z</time>
      </trkpt>
      <trkpt lat="42.98225" lon="0.22431">
        <ele>939</ele>
        <time>2014-11-08T09:26:34Z</time>
      </trkpt>
      <trkpt lat="42.98215" lon="0.22431">
        <ele>939</ele>
        <time>2014-11-08T09:26:43Z</time>
      </trkpt>
      <trkpt lat="42.98205" lon="0.22433">
        <ele>940</ele>
        <time>2014-11-08T09:26:54Z</time>
      </trkpt>
      <trkpt lat="42.98201" lon="0.22433">
        <ele>940</ele>
        <time>2014-11-08T09:26:59Z</time>
      </trkpt>
      <trkpt lat="42.98177" lon="0.22438">
        <ele>942</ele>
        <time>2014-11-08T09:27:32Z</time>
      </trkpt>
      <trkpt lat="42.98172" lon="0.2244">
        <ele>942</ele>
        <time>2014-11-08T09:27:37Z</time>
      </trkpt>
      <trkpt lat="42.98163" lon="0.2244">
        <ele>945</ele>
        <time>2014-11-08T09:27:53Z</time>
      </trkpt>
      <trkpt lat="42.98159" lon="0.22437">
        <ele>946</ele>
        <time>2014-11-08T09:28:26Z</time>
      </trkpt>
      <trkpt lat="42.98155" lon="0.22436">
        <ele>946</ele>
        <time>2014-11-08T09:28:31Z</time>
      </trkpt>
      <trkpt lat="42.98131" lon="0.22441">
        <ele>946</ele>
        <time>2014-11-08T09:29:01Z</time>
      </trkpt>
      <trkpt lat="42.98118" lon="0.22444">
        <ele>946</ele>
        <time>2014-11-08T09:29:36Z</time>
      </trkpt>
      <trkpt lat="42.98079" lon="0.22451">
        <ele>951</ele>
        <time>2014-11-08T09:30:06Z</time>
      </trkpt>
      <trkpt lat="42.98064" lon="0.22452">
        <ele>952</ele>
        <time>2014-11-08T09:30:23Z</time>
      </trkpt>
      <trkpt lat="42.98058" lon="0.22453">
        <ele>952</ele>
        <time>2014-11-08T09:30:28Z</time>
      </trkpt>
      <trkpt lat="42.98047" lon="0.22453">
        <ele>953</ele>
        <time>2014-11-08T09:30:35Z</time>
      </trkpt>
      <trkpt lat="42.98037" lon="0.22453">
        <ele>953</ele>
        <time>2014-11-08T09:30:43Z</time>
      </trkpt>
      <trkpt lat="42.98033" lon="0.22451">
        <ele>953</ele>
        <time>2014-11-08T09:30:48Z</time>
      </trkpt>
      <trkpt lat="42.98028" lon="0.22452">
        <ele>954</ele>
        <time>2014-11-08T09:30:54Z</time>
      </trkpt>
      <trkpt lat="42.98025" lon="0.22456">
        <ele>954</ele>
        <time>2014-11-08T09:31:02Z</time>
      </trkpt>
      <trkpt lat="42.98014" lon="0.22458">
        <ele>954</ele>
        <time>2014-11-08T09:31:13Z</time>
      </trkpt>
      <trkpt lat="42.98008" lon="0.22456">
        <ele>954</ele>
        <time>2014-11-08T09:31:17Z</time>
      </trkpt>
      <trkpt lat="42.97998" lon="0.22452">
        <ele>958</ele>
        <time>2014-11-08T09:32:01Z</time>
      </trkpt>
      <trkpt lat="42.97987" lon="0.22455">
        <ele>958</ele>
        <time>2014-11-08T09:32:33Z</time>
      </trkpt>
      <trkpt lat="42.97982" lon="0.22455">
        <ele>958</ele>
        <time>2014-11-08T09:32:38Z</time>
      </trkpt>
      <trkpt lat="42.9796" lon="0.22463">
        <ele>959</ele>
        <time>2014-11-08T09:32:55Z</time>
      </trkpt>
      <trkpt lat="42.97949" lon="0.22466">
        <ele>959</ele>
        <time>2014-11-08T09:33:03Z</time>
      </trkpt>
      <trkpt lat="42.9794" lon="0.2247">
        <ele>959</ele>
        <time>2014-11-08T09:33:13Z</time>
      </trkpt>
      <trkpt lat="42.97929" lon="0.22474">
        <ele>959</ele>
        <time>2014-11-08T09:33:23Z</time>
      </trkpt>
      <trkpt lat="42.97923" lon="0.22473">
        <ele>959</ele>
        <time>2014-11-08T09:33:29Z</time>
      </trkpt>
      <trkpt lat="42.97912" lon="0.22478">
        <ele>963</ele>
        <time>2014-11-08T09:33:36Z</time>
      </trkpt>
      <trkpt lat="42.97901" lon="0.22482">
        <ele>964</ele>
        <time>2014-11-08T09:33:43Z</time>
      </trkpt>
      <trkpt lat="42.9789" lon="0.22486">
        <ele>964</ele>
        <time>2014-11-08T09:33:52Z</time>
      </trkpt>
      <trkpt lat="42.97883" lon="0.22496">
        <ele>965</ele>
        <time>2014-11-08T09:34:01Z</time>
      </trkpt>
      <trkpt lat="42.97876" lon="0.22502">
        <ele>959</ele>
        <time>2014-11-08T09:34:16Z</time>
      </trkpt>
      <trkpt lat="42.97866" lon="0.22501">
        <ele>961</ele>
        <time>2014-11-08T09:34:32Z</time>
      </trkpt>
      <trkpt lat="42.97862" lon="0.22503">
        <ele>962</ele>
        <time>2014-11-08T09:34:37Z</time>
      </trkpt>
      <trkpt lat="42.97853" lon="0.225">
        <ele>964</ele>
        <time>2014-11-08T09:34:54Z</time>
      </trkpt>
      <trkpt lat="42.9785" lon="0.22496">
        <ele>970</ele>
        <time>2014-11-08T09:35:02Z</time>
      </trkpt>
      <trkpt lat="42.97828" lon="0.22476">
        <ele>979</ele>
        <time>2014-11-08T09:36:02Z</time>
      </trkpt>
      <trkpt lat="42.97823" lon="0.22471">
        <ele>979</ele>
        <time>2014-11-08T09:36:10Z</time>
      </trkpt>
      <trkpt lat="42.97793" lon="0.22456">
        <ele>982</ele>
        <time>2014-11-08T09:36:43Z</time>
      </trkpt>
      <trkpt lat="42.97767" lon="0.22446">
        <ele>986</ele>
        <time>2014-11-08T09:37:17Z</time>
      </trkpt>
      <trkpt lat="42.97763" lon="0.22443">
        <ele>986</ele>
        <time>2014-11-08T09:37:23Z</time>
      </trkpt>
      <trkpt lat="42.9776" lon="0.22439">
        <ele>986</ele>
        <time>2014-11-08T09:37:38Z</time>
      </trkpt>
      <trkpt lat="42.97753" lon="0.22437">
        <ele>987</ele>
        <time>2014-11-08T09:37:55Z</time>
      </trkpt>
      <trkpt lat="42.97751" lon="0.22437">
        <ele>987</ele>
        <time>2014-11-08T09:38:05Z</time>
      </trkpt>
      <trkpt lat="42.97748" lon="0.22435">
        <ele>1001</ele>
        <time>2014-11-08T09:38:08Z</time>
      </trkpt>
      <trkpt lat="42.97747" lon="0.22433">
        <ele>1000</ele>
        <time>2014-11-08T09:38:10Z</time>
      </trkpt>
      <trkpt lat="42.97746" lon="0.22427">
        <ele>998</ele>
        <time>2014-11-08T09:38:15Z</time>
      </trkpt>
      <trkpt lat="42.97743" lon="0.22427">
        <ele>999</ele>
        <time>2014-11-08T09:38:17Z</time>
      </trkpt>
      <trkpt lat="42.97741" lon="0.22427">
        <ele>1000</ele>
        <time>2014-11-08T09:38:18Z</time>
      </trkpt>
      <trkpt lat="42.97735" lon="0.22425">
        <ele>1001</ele>
        <time>2014-11-08T09:38:26Z</time>
      </trkpt>
      <trkpt lat="42.97716" lon="0.22403">
        <ele>1000</ele>
        <time>2014-11-08T09:39:03Z</time>
      </trkpt>
      <trkpt lat="42.97689" lon="0.22388">
        <ele>1005</ele>
        <time>2014-11-08T09:39:28Z</time>
      </trkpt>
      <trkpt lat="42.97676" lon="0.22383">
        <ele>1007</ele>
        <time>2014-11-08T09:39:55Z</time>
      </trkpt>
      <trkpt lat="42.97669" lon="0.22383">
        <ele>1007</ele>
        <time>2014-11-08T09:40:11Z</time>
      </trkpt>
      <trkpt lat="42.97667" lon="0.22385">
        <ele>1008</ele>
        <time>2014-11-08T09:40:14Z</time>
      </trkpt>
      <trkpt lat="42.97664" lon="0.22385">
        <ele>1028</ele>
        <time>2014-11-08T09:40:17Z</time>
      </trkpt>
      <trkpt lat="42.97653" lon="0.22381">
        <ele>1029</ele>
        <time>2014-11-08T09:40:50Z</time>
      </trkpt>
      <trkpt lat="42.97645" lon="0.22377">
        <ele>1030</ele>
        <time>2014-11-08T09:41:03Z</time>
      </trkpt>
      <trkpt lat="42.97638" lon="0.22373">
        <ele>1031</ele>
        <time>2014-11-08T09:41:15Z</time>
      </trkpt>
      <trkpt lat="42.9762" lon="0.22368">
        <ele>1035</ele>
        <time>2014-11-08T09:41:44Z</time>
      </trkpt>
      <trkpt lat="42.97608" lon="0.22361">
        <ele>1036</ele>
        <time>2014-11-08T09:42:15Z</time>
      </trkpt>
      <trkpt lat="42.97606" lon="0.22361">
        <ele>1037</ele>
        <time>2014-11-08T09:42:17Z</time>
      </trkpt>
      <trkpt lat="42.97592" lon="0.22354">
        <ele>1039</ele>
        <time>2014-11-08T09:42:37Z</time>
      </trkpt>
      <trkpt lat="42.97588" lon="0.22352">
        <ele>1039</ele>
        <time>2014-11-08T09:42:45Z</time>
      </trkpt>
      <trkpt lat="42.97579" lon="0.22351">
        <ele>1056</ele>
        <time>2014-11-08T09:43:04Z</time>
      </trkpt>
      <trkpt lat="42.9757" lon="0.22348">
        <ele>1058</ele>
        <time>2014-11-08T09:43:27Z</time>
      </trkpt>
      <trkpt lat="42.97561" lon="0.22348">
        <ele>1061</ele>
        <time>2014-11-08T09:43:45Z</time>
      </trkpt>
      <trkpt lat="42.97552" lon="0.22347">
        <ele>1064</ele>
        <time>2014-11-08T09:44:00Z</time>
      </trkpt>
      <trkpt lat="42.97539" lon="0.22347">
        <ele>1068</ele>
        <time>2014-11-08T09:44:14Z</time>
      </trkpt>
      <trkpt lat="42.9752" lon="0.22348">
        <ele>1072</ele>
        <time>2014-11-08T09:44:45Z</time>
      </trkpt>
      <trkpt lat="42.97497" lon="0.22346">
        <ele>1085</ele>
        <time>2014-11-08T09:45:17Z</time>
      </trkpt>
      <trkpt lat="42.97496" lon="0.22346">
        <ele>1085</ele>
        <time>2014-11-08T09:45:19Z</time>
      </trkpt>
      <trkpt lat="42.97486" lon="0.22349">
        <ele>1090</ele>
        <time>2014-11-08T09:45:34Z</time>
      </trkpt>
      <trkpt lat="42.97484" lon="0.22348">
        <ele>1090</ele>
        <time>2014-11-08T09:45:37Z</time>
      </trkpt>
      <trkpt lat="42.97468" lon="0.22349">
        <ele>1094</ele>
        <time>2014-11-08T09:46:07Z</time>
      </trkpt>
      <trkpt lat="42.97448" lon="0.22348">
        <ele>1098</ele>
        <time>2014-11-08T09:46:39Z</time>
      </trkpt>
      <trkpt lat="42.9744" lon="0.22348">
        <ele>1099</ele>
        <time>2014-11-08T09:46:51Z</time>
      </trkpt>
      <trkpt lat="42.97435" lon="0.22349">
        <ele>1100</ele>
        <time>2014-11-08T09:47:02Z</time>
      </trkpt>
      <trkpt lat="42.97433" lon="0.22349">
        <ele>1100</ele>
        <time>2014-11-08T09:47:06Z</time>
      </trkpt>
      <trkpt lat="42.97429" lon="0.22348">
        <ele>1100</ele>
        <time>2014-11-08T09:47:14Z</time>
      </trkpt>
      <trkpt lat="42.97424" lon="0.2235">
        <ele>1101</ele>
        <time>2014-11-08T09:47:25Z</time>
      </trkpt>
      <trkpt lat="42.97422" lon="0.2235">
        <ele>1101</ele>
        <time>2014-11-08T09:47:28Z</time>
      </trkpt>
      <trkpt lat="42.97413" lon="0.22349">
        <ele>1112</ele>
        <time>2014-11-08T09:47:42Z</time>
      </trkpt>
      <trkpt lat="42.97409" lon="0.2235">
        <ele>1113</ele>
        <time>2014-11-08T09:47:53Z</time>
      </trkpt>
      <trkpt lat="42.97403" lon="0.2235">
        <ele>1114</ele>
        <time>2014-11-08T09:48:09Z</time>
      </trkpt>
      <trkpt lat="42.97398" lon="0.22349">
        <ele>1115</ele>
        <time>2014-11-08T09:48:15Z</time>
      </trkpt>
      <trkpt lat="42.97392" lon="0.2235">
        <ele>1117</ele>
        <time>2014-11-08T09:48:29Z</time>
      </trkpt>
      <trkpt lat="42.97389" lon="0.22349">
        <ele>1118</ele>
        <time>2014-11-08T09:49:12Z</time>
      </trkpt>
      <trkpt lat="42.97387" lon="0.22349">
        <ele>1118</ele>
        <time>2014-11-08T09:49:23Z</time>
      </trkpt>
      <trkpt lat="42.97371" lon="0.2234">
        <ele>1121</ele>
        <time>2014-11-08T09:49:54Z</time>
      </trkpt>
      <trkpt lat="42.97368" lon="0.22339">
        <ele>1121</ele>
        <time>2014-11-08T09:49:58Z</time>
      </trkpt>
      <trkpt lat="42.97366" lon="0.22338">
        <ele>1122</ele>
        <time>2014-11-08T09:50:00Z</time>
      </trkpt>
      <trkpt lat="42.97343" lon="0.22332">
        <ele>1119</ele>
        <time>2014-11-08T09:50:30Z</time>
      </trkpt>
      <trkpt lat="42.9734" lon="0.22329">
        <ele>1121</ele>
        <time>2014-11-08T09:50:36Z</time>
      </trkpt>
      <trkpt lat="42.97335" lon="0.22331">
        <ele>1124</ele>
        <time>2014-11-08T09:50:42Z</time>
      </trkpt>
      <trkpt lat="42.97331" lon="0.22331">
        <ele>1128</ele>
        <time>2014-11-08T09:50:47Z</time>
      </trkpt>
      <trkpt lat="42.97326" lon="0.22328">
        <ele>1129</ele>
        <time>2014-11-08T09:50:53Z</time>
      </trkpt>
      <trkpt lat="42.97322" lon="0.22326">
        <ele>1129</ele>
        <time>2014-11-08T09:50:59Z</time>
      </trkpt>
      <trkpt lat="42.97299" lon="0.22318">
        <ele>1134</ele>
        <time>2014-11-08T09:51:31Z</time>
      </trkpt>
      <trkpt lat="42.97291" lon="0.22315">
        <ele>1135</ele>
        <time>2014-11-08T09:51:57Z</time>
      </trkpt>
      <trkpt lat="42.97291" lon="0.22313">
        <ele>1135</ele>
        <time>2014-11-08T09:52:55Z</time>
      </trkpt>
      <trkpt lat="42.97289" lon="0.22313">
        <ele>1136</ele>
        <time>2014-11-08T09:54:06Z</time>
      </trkpt>
      <trkpt lat="42.97287" lon="0.22313">
        <ele>1136</ele>
        <time>2014-11-08T09:54:10Z</time>
      </trkpt>
      <trkpt lat="42.97269" lon="0.2231">
        <ele>1141</ele>
        <time>2014-11-08T09:54:36Z</time>
      </trkpt>
      <trkpt lat="42.97265" lon="0.22307">
        <ele>1141</ele>
        <time>2014-11-08T09:54:45Z</time>
      </trkpt>
      <trkpt lat="42.97255" lon="0.22306">
        <ele>1142</ele>
        <time>2014-11-08T09:55:00Z</time>
      </trkpt>
      <trkpt lat="42.97242" lon="0.22305">
        <ele>1164</ele>
        <time>2014-11-08T09:55:30Z</time>
      </trkpt>
      <trkpt lat="42.97241" lon="0.22304">
        <ele>1164</ele>
        <time>2014-11-08T09:55:33Z</time>
      </trkpt>
      <trkpt lat="42.97239" lon="0.22304">
        <ele>1164</ele>
        <time>2014-11-08T09:55:36Z</time>
      </trkpt>
      <trkpt lat="42.97238" lon="0.22303">
        <ele>1164</ele>
        <time>2014-11-08T09:55:42Z</time>
      </trkpt>
      <trkpt lat="42.97236" lon="0.22302">
        <ele>1164</ele>
        <time>2014-11-08T09:55:47Z</time>
      </trkpt>
      <trkpt lat="42.9723" lon="0.22303">
        <ele>1165</ele>
        <time>2014-11-08T09:55:56Z</time>
      </trkpt>
      <trkpt lat="42.97226" lon="0.22302">
        <ele>1166</ele>
        <time>2014-11-08T09:56:05Z</time>
      </trkpt>
      <trkpt lat="42.9722" lon="0.22299">
        <ele>1167</ele>
        <time>2014-11-08T09:56:19Z</time>
      </trkpt>
      <trkpt lat="42.97216" lon="0.223">
        <ele>1168</ele>
        <time>2014-11-08T09:56:25Z</time>
      </trkpt>
      <trkpt lat="42.97213" lon="0.22308">
        <ele>1169</ele>
        <time>2014-11-08T09:56:39Z</time>
      </trkpt>
      <trkpt lat="42.97213" lon="0.22313">
        <ele>1170</ele>
        <time>2014-11-08T09:56:47Z</time>
      </trkpt>
      <trkpt lat="42.97214" lon="0.22337">
        <ele>1180</ele>
        <time>2014-11-08T09:57:19Z</time>
      </trkpt>
      <trkpt lat="42.97213" lon="0.22342">
        <ele>1181</ele>
        <time>2014-11-08T09:57:26Z</time>
      </trkpt>
      <trkpt lat="42.97207" lon="0.22348">
        <ele>1183</ele>
        <time>2014-11-08T09:57:39Z</time>
      </trkpt>
      <trkpt lat="42.97205" lon="0.22349">
        <ele>1184</ele>
        <time>2014-11-08T09:57:42Z</time>
      </trkpt>
      <trkpt lat="42.97189" lon="0.2235">
        <ele>1188</ele>
        <time>2014-11-08T09:58:05Z</time>
      </trkpt>
      <trkpt lat="42.97188" lon="0.22352">
        <ele>1188</ele>
        <time>2014-11-08T09:58:10Z</time>
      </trkpt>
      <trkpt lat="42.97175" lon="0.22354">
        <ele>1190</ele>
        <time>2014-11-08T09:58:36Z</time>
      </trkpt>
      <trkpt lat="42.97171" lon="0.22355">
        <ele>1190</ele>
        <time>2014-11-08T09:58:44Z</time>
      </trkpt>
      <trkpt lat="42.97166" lon="0.22354">
        <ele>1206</ele>
        <time>2014-11-08T09:59:26Z</time>
      </trkpt>
      <trkpt lat="42.97163" lon="0.22348">
        <ele>1204</ele>
        <time>2014-11-08T09:59:35Z</time>
      </trkpt>
      <trkpt lat="42.97154" lon="0.22342">
        <ele>1205</ele>
        <time>2014-11-08T10:00:04Z</time>
      </trkpt>
      <trkpt lat="42.97149" lon="0.22338">
        <ele>1206</ele>
        <time>2014-11-08T10:00:08Z</time>
      </trkpt>
      <trkpt lat="42.97145" lon="0.22335">
        <ele>1207</ele>
        <time>2014-11-08T10:00:13Z</time>
      </trkpt>
      <trkpt lat="42.97133" lon="0.22324">
        <ele>1202</ele>
        <time>2014-11-08T10:00:25Z</time>
      </trkpt>
      <trkpt lat="42.97124" lon="0.22319">
        <ele>1203</ele>
        <time>2014-11-08T10:00:35Z</time>
      </trkpt>
      <trkpt lat="42.97107" lon="0.22315">
        <ele>1207</ele>
        <time>2014-11-08T10:00:57Z</time>
      </trkpt>
      <trkpt lat="42.97102" lon="0.22315">
        <ele>1208</ele>
        <time>2014-11-08T10:01:03Z</time>
      </trkpt>
      <trkpt lat="42.97098" lon="0.22314">
        <ele>1209</ele>
        <time>2014-11-08T10:01:10Z</time>
      </trkpt>
      <trkpt lat="42.97083" lon="0.22315">
        <ele>1212</ele>
        <time>2014-11-08T10:01:34Z</time>
      </trkpt>
      <trkpt lat="42.97066" lon="0.22324">
        <ele>1222</ele>
        <time>2014-11-08T10:02:06Z</time>
      </trkpt>
      <trkpt lat="42.97057" lon="0.22325">
        <ele>1222</ele>
        <time>2014-11-08T10:02:24Z</time>
      </trkpt>
      <trkpt lat="42.97048" lon="0.22327">
        <ele>1223</ele>
        <time>2014-11-08T10:02:39Z</time>
      </trkpt>
      <trkpt lat="42.97044" lon="0.22327">
        <ele>1224</ele>
        <time>2014-11-08T10:02:45Z</time>
      </trkpt>
      <trkpt lat="42.9702" lon="0.22335">
        <ele>1235</ele>
        <time>2014-11-08T10:03:15Z</time>
      </trkpt>
      <trkpt lat="42.97019" lon="0.22336">
        <ele>1235</ele>
        <time>2014-11-08T10:03:17Z</time>
      </trkpt>
      <trkpt lat="42.97007" lon="0.22342">
        <ele>1236</ele>
        <time>2014-11-08T10:03:36Z</time>
      </trkpt>
      <trkpt lat="42.96985" lon="0.22355">
        <ele>1245</ele>
        <time>2014-11-08T10:04:06Z</time>
      </trkpt>
      <trkpt lat="42.96983" lon="0.22356">
        <ele>1245</ele>
        <time>2014-11-08T10:04:09Z</time>
      </trkpt>
      <trkpt lat="42.96982" lon="0.22357">
        <ele>1245</ele>
        <time>2014-11-08T10:04:12Z</time>
      </trkpt>
      <trkpt lat="42.9698" lon="0.22357">
        <ele>1246</ele>
        <time>2014-11-08T10:04:15Z</time>
      </trkpt>
      <trkpt lat="42.96967" lon="0.22355">
        <ele>1247</ele>
        <time>2014-11-08T10:04:35Z</time>
      </trkpt>
      <trkpt lat="42.96965" lon="0.22353">
        <ele>1248</ele>
        <time>2014-11-08T10:04:38Z</time>
      </trkpt>
      <trkpt lat="42.96963" lon="0.22351">
        <ele>1248</ele>
        <time>2014-11-08T10:04:41Z</time>
      </trkpt>
      <trkpt lat="42.96961" lon="0.2235">
        <ele>1248</ele>
        <time>2014-11-08T10:04:44Z</time>
      </trkpt>
      <trkpt lat="42.96959" lon="0.22349">
        <ele>1249</ele>
        <time>2014-11-08T10:04:47Z</time>
      </trkpt>
      <trkpt lat="42.96956" lon="0.22349">
        <ele>1249</ele>
        <time>2014-11-08T10:04:57Z</time>
      </trkpt>
      <trkpt lat="42.96955" lon="0.22347">
        <ele>1249</ele>
        <time>2014-11-08T10:05:09Z</time>
      </trkpt>
      <trkpt lat="42.96953" lon="0.22347">
        <ele>1250</ele>
        <time>2014-11-08T10:05:13Z</time>
      </trkpt>
      <trkpt lat="42.9695" lon="0.22347">
        <ele>1250</ele>
        <time>2014-11-08T10:05:21Z</time>
      </trkpt>
      <trkpt lat="42.96947" lon="0.22346">
        <ele>1251</ele>
        <time>2014-11-08T10:07:01Z</time>
      </trkpt>
      <trkpt lat="42.96946" lon="0.22345">
        <ele>1251</ele>
        <time>2014-11-08T10:07:03Z</time>
      </trkpt>
      <trkpt lat="42.96944" lon="0.22345">
        <ele>1251</ele>
        <time>2014-11-08T10:07:05Z</time>
      </trkpt>
      <trkpt lat="42.96928" lon="0.22339">
        <ele>1255</ele>
        <time>2014-11-08T10:07:22Z</time>
      </trkpt>
      <trkpt lat="42.96927" lon="0.22338">
        <ele>1255</ele>
        <time>2014-11-08T10:07:24Z</time>
      </trkpt>
      <trkpt lat="42.9692" lon="0.22338">
        <ele>1257</ele>
        <time>2014-11-08T10:07:32Z</time>
      </trkpt>
      <trkpt lat="42.96915" lon="0.22336">
        <ele>1261</ele>
        <time>2014-11-08T10:07:39Z</time>
      </trkpt>
      <trkpt lat="42.96912" lon="0.22335">
        <ele>1261</ele>
        <time>2014-11-08T10:07:46Z</time>
      </trkpt>
      <trkpt lat="42.96889" lon="0.22322">
        <ele>1263</ele>
        <time>2014-11-08T10:08:18Z</time>
      </trkpt>
      <trkpt lat="42.96872" lon="0.22317">
        <ele>1267</ele>
        <time>2014-11-08T10:08:42Z</time>
      </trkpt>
      <trkpt lat="42.96847" lon="0.22319">
        <ele>1274</ele>
        <time>2014-11-08T10:09:13Z</time>
      </trkpt>
      <trkpt lat="42.96825" lon="0.22316">
        <ele>1288</ele>
        <time>2014-11-08T10:09:47Z</time>
      </trkpt>
      <trkpt lat="42.96816" lon="0.22313">
        <ele>1289</ele>
        <time>2014-11-08T10:10:00Z</time>
      </trkpt>
      <trkpt lat="42.96811" lon="0.22313">
        <ele>1289</ele>
        <time>2014-11-08T10:10:10Z</time>
      </trkpt>
      <trkpt lat="42.96807" lon="0.2231">
        <ele>1289</ele>
        <time>2014-11-08T10:10:16Z</time>
      </trkpt>
      <trkpt lat="42.96793" lon="0.22309">
        <ele>1291</ele>
        <time>2014-11-08T10:10:36Z</time>
      </trkpt>
      <trkpt lat="42.96783" lon="0.22307">
        <ele>1292</ele>
        <time>2014-11-08T10:10:50Z</time>
      </trkpt>
      <trkpt lat="42.96779" lon="0.22307">
        <ele>1293</ele>
        <time>2014-11-08T10:11:09Z</time>
      </trkpt>
      <trkpt lat="42.96775" lon="0.22305">
        <ele>1293</ele>
        <time>2014-11-08T10:11:22Z</time>
      </trkpt>
      <trkpt lat="42.96771" lon="0.22301">
        <ele>1293</ele>
        <time>2014-11-08T10:11:28Z</time>
      </trkpt>
      <trkpt lat="42.96766" lon="0.22303">
        <ele>1294</ele>
        <time>2014-11-08T10:11:32Z</time>
      </trkpt>
      <trkpt lat="42.96755" lon="0.22298">
        <ele>1295</ele>
        <time>2014-11-08T10:11:42Z</time>
      </trkpt>
      <trkpt lat="42.96751" lon="0.22296">
        <ele>1295</ele>
        <time>2014-11-08T10:11:47Z</time>
      </trkpt>
      <trkpt lat="42.96732" lon="0.22288">
        <ele>1311</ele>
        <time>2014-11-08T10:12:18Z</time>
      </trkpt>
      <trkpt lat="42.96731" lon="0.22287">
        <ele>1311</ele>
        <time>2014-11-08T10:12:21Z</time>
      </trkpt>
      <trkpt lat="42.96729" lon="0.22285">
        <ele>1311</ele>
        <time>2014-11-08T10:12:24Z</time>
      </trkpt>
      <trkpt lat="42.96727" lon="0.22284">
        <ele>1311</ele>
        <time>2014-11-08T10:12:27Z</time>
      </trkpt>
      <trkpt lat="42.96724" lon="0.22284">
        <ele>1311</ele>
        <time>2014-11-08T10:12:30Z</time>
      </trkpt>
      <trkpt lat="42.96723" lon="0.22282">
        <ele>1311</ele>
        <time>2014-11-08T10:12:33Z</time>
      </trkpt>
      <trkpt lat="42.96721" lon="0.22281">
        <ele>1312</ele>
        <time>2014-11-08T10:12:36Z</time>
      </trkpt>
      <trkpt lat="42.96694" lon="0.22269">
        <ele>1316</ele>
        <time>2014-11-08T10:13:08Z</time>
      </trkpt>
      <trkpt lat="42.9669" lon="0.22267">
        <ele>1317</ele>
        <time>2014-11-08T10:13:14Z</time>
      </trkpt>
      <trkpt lat="42.96685" lon="0.22266">
        <ele>1318</ele>
        <time>2014-11-08T10:13:21Z</time>
      </trkpt>
      <trkpt lat="42.96668" lon="0.22262">
        <ele>1321</ele>
        <time>2014-11-08T10:13:53Z</time>
      </trkpt>
      <trkpt lat="42.96666" lon="0.22261">
        <ele>1329</ele>
        <time>2014-11-08T10:13:56Z</time>
      </trkpt>
      <trkpt lat="42.96664" lon="0.2226">
        <ele>1329</ele>
        <time>2014-11-08T10:14:00Z</time>
      </trkpt>
      <trkpt lat="42.96661" lon="0.22256">
        <ele>1328</ele>
        <time>2014-11-08T10:14:07Z</time>
      </trkpt>
      <trkpt lat="42.96658" lon="0.22255">
        <ele>1329</ele>
        <time>2014-11-08T10:14:10Z</time>
      </trkpt>
      <trkpt lat="42.96656" lon="0.22254">
        <ele>1329</ele>
        <time>2014-11-08T10:14:13Z</time>
      </trkpt>
      <trkpt lat="42.96651" lon="0.22249">
        <ele>1328</ele>
        <time>2014-11-08T10:14:22Z</time>
      </trkpt>
      <trkpt lat="42.96649" lon="0.22249">
        <ele>1329</ele>
        <time>2014-11-08T10:14:25Z</time>
      </trkpt>
      <trkpt lat="42.96636" lon="0.22242">
        <ele>1331</ele>
        <time>2014-11-08T10:14:44Z</time>
      </trkpt>
      <trkpt lat="42.96634" lon="0.22243">
        <ele>1331</ele>
        <time>2014-11-08T10:14:46Z</time>
      </trkpt>
      <trkpt lat="42.96614" lon="0.22242">
        <ele>1335</ele>
        <time>2014-11-08T10:15:17Z</time>
      </trkpt>
      <trkpt lat="42.96601" lon="0.22242">
        <ele>1338</ele>
        <time>2014-11-08T10:15:37Z</time>
      </trkpt>
      <trkpt lat="42.96597" lon="0.22239">
        <ele>1339</ele>
        <time>2014-11-08T10:15:44Z</time>
      </trkpt>
      <trkpt lat="42.96593" lon="0.22239">
        <ele>1340</ele>
        <time>2014-11-08T10:15:52Z</time>
      </trkpt>
      <trkpt lat="42.96591" lon="0.22239">
        <ele>1341</ele>
        <time>2014-11-08T10:15:55Z</time>
      </trkpt>
      <trkpt lat="42.96589" lon="0.22239">
        <ele>1341</ele>
        <time>2014-11-08T10:15:58Z</time>
      </trkpt>
      <trkpt lat="42.96569" lon="0.22232">
        <ele>1350</ele>
        <time>2014-11-08T10:16:29Z</time>
      </trkpt>
      <trkpt lat="42.96562" lon="0.2223">
        <ele>1351</ele>
        <time>2014-11-08T10:16:38Z</time>
      </trkpt>
      <trkpt lat="42.96558" lon="0.22231">
        <ele>1351</ele>
        <time>2014-11-08T10:16:46Z</time>
      </trkpt>
      <trkpt lat="42.96537" lon="0.22229">
        <ele>1354</ele>
        <time>2014-11-08T10:17:18Z</time>
      </trkpt>
      <trkpt lat="42.96535" lon="0.22229">
        <ele>1354</ele>
        <time>2014-11-08T10:17:21Z</time>
      </trkpt>
      <trkpt lat="42.96529" lon="0.2223">
        <ele>1356</ele>
        <time>2014-11-08T10:17:30Z</time>
      </trkpt>
      <trkpt lat="42.96525" lon="0.22227">
        <ele>1356</ele>
        <time>2014-11-08T10:17:36Z</time>
      </trkpt>
      <trkpt lat="42.96515" lon="0.22226">
        <ele>1357</ele>
        <time>2014-11-08T10:17:53Z</time>
      </trkpt>
      <trkpt lat="42.9651" lon="0.22226">
        <ele>1358</ele>
        <time>2014-11-08T10:17:59Z</time>
      </trkpt>
      <trkpt lat="42.96504" lon="0.22228">
        <ele>1359</ele>
        <time>2014-11-08T10:18:11Z</time>
      </trkpt>
      <trkpt lat="42.96502" lon="0.22227">
        <ele>1359</ele>
        <time>2014-11-08T10:18:14Z</time>
      </trkpt>
      <trkpt lat="42.96499" lon="0.22226">
        <ele>1372</ele>
        <time>2014-11-08T10:18:19Z</time>
      </trkpt>
      <trkpt lat="42.96498" lon="0.22226">
        <ele>1372</ele>
        <time>2014-11-08T10:18:21Z</time>
      </trkpt>
      <trkpt lat="42.9649" lon="0.22222">
        <ele>1373</ele>
        <time>2014-11-08T10:18:40Z</time>
      </trkpt>
      <trkpt lat="42.96488" lon="0.2222">
        <ele>1373</ele>
        <time>2014-11-08T10:18:47Z</time>
      </trkpt>
      <trkpt lat="42.96464" lon="0.22212">
        <ele>1376</ele>
        <time>2014-11-08T10:19:19Z</time>
      </trkpt>
      <trkpt lat="42.96462" lon="0.22211">
        <ele>1376</ele>
        <time>2014-11-08T10:19:22Z</time>
      </trkpt>
      <trkpt lat="42.9646" lon="0.2221">
        <ele>1376</ele>
        <time>2014-11-08T10:19:24Z</time>
      </trkpt>
      <trkpt lat="42.96453" lon="0.22205">
        <ele>1377</ele>
        <time>2014-11-08T10:19:32Z</time>
      </trkpt>
      <trkpt lat="42.96452" lon="0.22205">
        <ele>1377</ele>
        <time>2014-11-08T10:19:34Z</time>
      </trkpt>
      <trkpt lat="42.9643" lon="0.22191">
        <ele>1380</ele>
        <time>2014-11-08T10:20:05Z</time>
      </trkpt>
      <trkpt lat="42.96412" lon="0.22176">
        <ele>1390</ele>
        <time>2014-11-08T10:20:36Z</time>
      </trkpt>
      <trkpt lat="42.9641" lon="0.22174">
        <ele>1390</ele>
        <time>2014-11-08T10:20:39Z</time>
      </trkpt>
      <trkpt lat="42.96409" lon="0.22171">
        <ele>1389</ele>
        <time>2014-11-08T10:20:42Z</time>
      </trkpt>
      <trkpt lat="42.96408" lon="0.22169">
        <ele>1389</ele>
        <time>2014-11-08T10:20:45Z</time>
      </trkpt>
      <trkpt lat="42.96391" lon="0.2215">
        <ele>1392</ele>
        <time>2014-11-08T10:21:16Z</time>
      </trkpt>
      <trkpt lat="42.96387" lon="0.22148">
        <ele>1393</ele>
        <time>2014-11-08T10:21:26Z</time>
      </trkpt>
      <trkpt lat="42.96369" lon="0.22129">
        <ele>1395</ele>
        <time>2014-11-08T10:21:57Z</time>
      </trkpt>
      <trkpt lat="42.96368" lon="0.22127">
        <ele>1396</ele>
        <time>2014-11-08T10:22:00Z</time>
      </trkpt>
      <trkpt lat="42.96366" lon="0.22126">
        <ele>1396</ele>
        <time>2014-11-08T10:22:03Z</time>
      </trkpt>
      <trkpt lat="42.96361" lon="0.22118">
        <ele>1397</ele>
        <time>2014-11-08T10:22:16Z</time>
      </trkpt>
      <trkpt lat="42.96346" lon="0.22105">
        <ele>1400</ele>
        <time>2014-11-08T10:22:46Z</time>
      </trkpt>
      <trkpt lat="42.96345" lon="0.22103">
        <ele>1400</ele>
        <time>2014-11-08T10:22:49Z</time>
      </trkpt>
      <trkpt lat="42.96344" lon="0.22101">
        <ele>1401</ele>
        <time>2014-11-08T10:22:52Z</time>
      </trkpt>
      <trkpt lat="42.96342" lon="0.22099">
        <ele>1402</ele>
        <time>2014-11-08T10:22:56Z</time>
      </trkpt>
      <trkpt lat="42.96327" lon="0.22079">
        <ele>1412</ele>
        <time>2014-11-08T10:23:26Z</time>
      </trkpt>
      <trkpt lat="42.96326" lon="0.22078">
        <ele>1412</ele>
        <time>2014-11-08T10:23:28Z</time>
      </trkpt>
      <trkpt lat="42.96323" lon="0.22076">
        <ele>1413</ele>
        <time>2014-11-08T10:23:31Z</time>
      </trkpt>
      <trkpt lat="42.96313" lon="0.22058">
        <ele>1417</ele>
        <time>2014-11-08T10:24:02Z</time>
      </trkpt>
      <trkpt lat="42.96303" lon="0.22048">
        <ele>1418</ele>
        <time>2014-11-08T10:24:24Z</time>
      </trkpt>
      <trkpt lat="42.96292" lon="0.22033">
        <ele>1421</ele>
        <time>2014-11-08T10:24:56Z</time>
      </trkpt>
      <trkpt lat="42.96282" lon="0.22015">
        <ele>1424</ele>
        <time>2014-11-08T10:25:32Z</time>
      </trkpt>
      <trkpt lat="42.96281" lon="0.22014">
        <ele>1424</ele>
        <time>2014-11-08T10:25:34Z</time>
      </trkpt>
      <trkpt lat="42.96279" lon="0.22012">
        <ele>1425</ele>
        <time>2014-11-08T10:25:41Z</time>
      </trkpt>
      <trkpt lat="42.96277" lon="0.22007">
        <ele>1426</ele>
        <time>2014-11-08T10:25:47Z</time>
      </trkpt>
      <trkpt lat="42.96275" lon="0.22007">
        <ele>1426</ele>
        <time>2014-11-08T10:25:49Z</time>
      </trkpt>
      <trkpt lat="42.96272" lon="0.22006">
        <ele>1427</ele>
        <time>2014-11-08T10:25:55Z</time>
      </trkpt>
      <trkpt lat="42.96271" lon="0.22003">
        <ele>1428</ele>
        <time>2014-11-08T10:25:58Z</time>
      </trkpt>
      <trkpt lat="42.9627" lon="0.22001">
        <ele>1429</ele>
        <time>2014-11-08T10:26:01Z</time>
      </trkpt>
      <trkpt lat="42.96262" lon="0.21984">
        <ele>1434</ele>
        <time>2014-11-08T10:26:34Z</time>
      </trkpt>
      <trkpt lat="42.96261" lon="0.21983">
        <ele>1434</ele>
        <time>2014-11-08T10:26:37Z</time>
      </trkpt>
      <trkpt lat="42.96258" lon="0.21981">
        <ele>1435</ele>
        <time>2014-11-08T10:26:44Z</time>
      </trkpt>
      <trkpt lat="42.96255" lon="0.21982">
        <ele>1435</ele>
        <time>2014-11-08T10:26:51Z</time>
      </trkpt>
      <trkpt lat="42.96252" lon="0.21983">
        <ele>1436</ele>
        <time>2014-11-08T10:26:54Z</time>
      </trkpt>
      <trkpt lat="42.96251" lon="0.21983">
        <ele>1436</ele>
        <time>2014-11-08T10:27:00Z</time>
      </trkpt>
      <trkpt lat="42.96248" lon="0.21984">
        <ele>1444</ele>
        <time>2014-11-08T10:27:34Z</time>
      </trkpt>
      <trkpt lat="42.96247" lon="0.21986">
        <ele>1444</ele>
        <time>2014-11-08T10:27:39Z</time>
      </trkpt>
      <trkpt lat="42.96244" lon="0.21993">
        <ele>1442</ele>
        <time>2014-11-08T10:27:45Z</time>
      </trkpt>
      <trkpt lat="42.96236" lon="0.21998">
        <ele>1443</ele>
        <time>2014-11-08T10:27:59Z</time>
      </trkpt>
      <trkpt lat="42.96235" lon="0.22002">
        <ele>1433</ele>
        <time>2014-11-08T10:28:04Z</time>
      </trkpt>
      <trkpt lat="42.96234" lon="0.22004">
        <ele>1433</ele>
        <time>2014-11-08T10:30:31Z</time>
      </trkpt>
      <trkpt lat="42.96236" lon="0.22007">
        <ele>1433</ele>
        <time>2014-11-08T10:30:33Z</time>
      </trkpt>
      <trkpt lat="42.96242" lon="0.22016">
        <ele>1432</ele>
        <time>2014-11-08T10:30:41Z</time>
      </trkpt>
      <trkpt lat="42.96241" lon="0.22013">
        <ele>1433</ele>
        <time>2014-11-08T10:31:24Z</time>
      </trkpt>
      <trkpt lat="42.9624" lon="0.22011">
        <ele>1433</ele>
        <time>2014-11-08T10:31:27Z</time>
      </trkpt>
      <trkpt lat="42.96238" lon="0.22007">
        <ele>1433</ele>
        <time>2014-11-08T10:31:32Z</time>
      </trkpt>
      <trkpt lat="42.96237" lon="0.22006">
        <ele>1433</ele>
        <time>2014-11-08T10:39:55Z</time>
      </trkpt>
      <trkpt lat="42.96238" lon="0.22003">
        <ele>1434</ele>
        <time>2014-11-08T10:50:58Z</time>
      </trkpt>
      <trkpt lat="42.96236" lon="0.22003">
        <ele>1433</ele>
        <time>2014-11-08T10:54:35Z</time>
      </trkpt>
      <trkpt lat="42.96236" lon="0.21998">
        <ele>1443</ele>
        <time>2014-11-08T10:54:42Z</time>
      </trkpt>
      <trkpt lat="42.96236" lon="0.21996">
        <ele>1443</ele>
        <time>2014-11-08T10:54:52Z</time>
      </trkpt>
      <trkpt lat="42.96236" lon="0.21991">
        <ele>1444</ele>
        <time>2014-11-08T10:55:02Z</time>
      </trkpt>
      <trkpt lat="42.96225" lon="0.21964">
        <ele>1448</ele>
        <time>2014-11-08T10:55:34Z</time>
      </trkpt>
      <trkpt lat="42.96225" lon="0.21952">
        <ele>1449</ele>
        <time>2014-11-08T10:55:50Z</time>
      </trkpt>
      <trkpt lat="42.96224" lon="0.21951">
        <ele>1449</ele>
        <time>2014-11-08T10:56:07Z</time>
      </trkpt>
      <trkpt lat="42.96223" lon="0.21949">
        <ele>1450</ele>
        <time>2014-11-08T10:56:12Z</time>
      </trkpt>
      <trkpt lat="42.96221" lon="0.21944">
        <ele>1450</ele>
        <time>2014-11-08T10:56:28Z</time>
      </trkpt>
      <trkpt lat="42.96207" lon="0.2193">
        <ele>1453</ele>
        <time>2014-11-08T10:56:59Z</time>
      </trkpt>
      <trkpt lat="42.96205" lon="0.21929">
        <ele>1453</ele>
        <time>2014-11-08T10:57:02Z</time>
      </trkpt>
      <trkpt lat="42.96202" lon="0.21924">
        <ele>1454</ele>
        <time>2014-11-08T10:57:08Z</time>
      </trkpt>
      <trkpt lat="42.96192" lon="0.21918">
        <ele>1456</ele>
        <time>2014-11-08T10:57:39Z</time>
      </trkpt>
      <trkpt lat="42.9619" lon="0.21917">
        <ele>1469</ele>
        <time>2014-11-08T10:57:42Z</time>
      </trkpt>
      <trkpt lat="42.96187" lon="0.21914">
        <ele>1469</ele>
        <time>2014-11-08T10:57:48Z</time>
      </trkpt>
      <trkpt lat="42.96185" lon="0.21913">
        <ele>1469</ele>
        <time>2014-11-08T10:57:52Z</time>
      </trkpt>
      <trkpt lat="42.96183" lon="0.21908">
        <ele>1470</ele>
        <time>2014-11-08T10:58:00Z</time>
      </trkpt>
      <trkpt lat="42.96167" lon="0.21895">
        <ele>1472</ele>
        <time>2014-11-08T10:58:30Z</time>
      </trkpt>
      <trkpt lat="42.96163" lon="0.21891">
        <ele>1477</ele>
        <time>2014-11-08T10:58:36Z</time>
      </trkpt>
      <trkpt lat="42.96159" lon="0.21888">
        <ele>1478</ele>
        <time>2014-11-08T10:58:47Z</time>
      </trkpt>
      <trkpt lat="42.96146" lon="0.21882">
        <ele>1480</ele>
        <time>2014-11-08T10:59:21Z</time>
      </trkpt>
      <trkpt lat="42.96139" lon="0.21873">
        <ele>1482</ele>
        <time>2014-11-08T10:59:40Z</time>
      </trkpt>
      <trkpt lat="42.96134" lon="0.21873">
        <ele>1482</ele>
        <time>2014-11-08T10:59:48Z</time>
      </trkpt>
      <trkpt lat="42.96118" lon="0.21863">
        <ele>1483</ele>
        <time>2014-11-08T11:00:18Z</time>
      </trkpt>
      <trkpt lat="42.9611" lon="0.21848">
        <ele>1485</ele>
        <time>2014-11-08T11:00:41Z</time>
      </trkpt>
      <trkpt lat="42.96111" lon="0.21841">
        <ele>1486</ele>
        <time>2014-11-08T11:00:47Z</time>
      </trkpt>
      <trkpt lat="42.96109" lon="0.21835">
        <ele>1487</ele>
        <time>2014-11-08T11:00:52Z</time>
      </trkpt>
      <trkpt lat="42.96104" lon="0.21804">
        <ele>1505</ele>
        <time>2014-11-08T11:01:18Z</time>
      </trkpt>
      <trkpt lat="42.96101" lon="0.21792">
        <ele>1507</ele>
        <time>2014-11-08T11:01:28Z</time>
      </trkpt>
      <trkpt lat="42.96088" lon="0.21771">
        <ele>1511</ele>
        <time>2014-11-08T11:01:51Z</time>
      </trkpt>
      <trkpt lat="42.96077" lon="0.2176">
        <ele>1514</ele>
        <time>2014-11-08T11:02:06Z</time>
      </trkpt>
      <trkpt lat="42.96074" lon="0.21754">
        <ele>1514</ele>
        <time>2014-11-08T11:02:12Z</time>
      </trkpt>
      <trkpt lat="42.96065" lon="0.21748">
        <ele>1526</ele>
        <time>2014-11-08T11:02:24Z</time>
      </trkpt>
      <trkpt lat="42.96064" lon="0.21742">
        <ele>1526</ele>
        <time>2014-11-08T11:02:35Z</time>
      </trkpt>
      <trkpt lat="42.96059" lon="0.21732">
        <ele>1528</ele>
        <time>2014-11-08T11:02:57Z</time>
      </trkpt>
      <trkpt lat="42.96057" lon="0.21728">
        <ele>1529</ele>
        <time>2014-11-08T11:03:32Z</time>
      </trkpt>
      <trkpt lat="42.96056" lon="0.21726">
        <ele>1530</ele>
        <time>2014-11-08T11:03:34Z</time>
      </trkpt>
      <trkpt lat="42.96049" lon="0.21722">
        <ele>1531</ele>
        <time>2014-11-08T11:03:43Z</time>
      </trkpt>
      <trkpt lat="42.96031" lon="0.21728">
        <ele>1530</ele>
        <time>2014-11-08T11:04:13Z</time>
      </trkpt>
      <trkpt lat="42.96017" lon="0.2173">
        <ele>1528</ele>
        <time>2014-11-08T11:04:32Z</time>
      </trkpt>
      <trkpt lat="42.96015" lon="0.21725">
        <ele>1529</ele>
        <time>2014-11-08T11:04:41Z</time>
      </trkpt>
      <trkpt lat="42.96019" lon="0.21707">
        <ele>1533</ele>
        <time>2014-11-08T11:05:13Z</time>
      </trkpt>
      <trkpt lat="42.96016" lon="0.21702">
        <ele>1535</ele>
        <time>2014-11-08T11:05:26Z</time>
      </trkpt>
      <trkpt lat="42.95998" lon="0.2169">
        <ele>1543</ele>
        <time>2014-11-08T11:05:56Z</time>
      </trkpt>
      <trkpt lat="42.95994" lon="0.21687">
        <ele>1544</ele>
        <time>2014-11-08T11:06:02Z</time>
      </trkpt>
      <trkpt lat="42.95986" lon="0.21674">
        <ele>1545</ele>
        <time>2014-11-08T11:06:26Z</time>
      </trkpt>
      <trkpt lat="42.95984" lon="0.21673">
        <ele>1545</ele>
        <time>2014-11-08T11:06:29Z</time>
      </trkpt>
      <trkpt lat="42.95982" lon="0.21672">
        <ele>1545</ele>
        <time>2014-11-08T11:06:32Z</time>
      </trkpt>
      <trkpt lat="42.9598" lon="0.21668">
        <ele>1545</ele>
        <time>2014-11-08T11:06:37Z</time>
      </trkpt>
      <trkpt lat="42.9598" lon="0.21665">
        <ele>1560</ele>
        <time>2014-11-08T11:06:40Z</time>
      </trkpt>
      <trkpt lat="42.95981" lon="0.21663">
        <ele>1560</ele>
        <time>2014-11-08T11:06:43Z</time>
      </trkpt>
      <trkpt lat="42.95969" lon="0.21659">
        <ele>1564</ele>
        <time>2014-11-08T11:07:10Z</time>
      </trkpt>
      <trkpt lat="42.95971" lon="0.21654">
        <ele>1565</ele>
        <time>2014-11-08T11:07:30Z</time>
      </trkpt>
      <trkpt lat="42.9597" lon="0.21652">
        <ele>1565</ele>
        <time>2014-11-08T11:07:35Z</time>
      </trkpt>
      <trkpt lat="42.95969" lon="0.21649">
        <ele>1566</ele>
        <time>2014-11-08T11:07:39Z</time>
      </trkpt>
      <trkpt lat="42.95968" lon="0.21645">
        <ele>1567</ele>
        <time>2014-11-08T11:07:53Z</time>
      </trkpt>
      <trkpt lat="42.95969" lon="0.21642">
        <ele>1567</ele>
        <time>2014-11-08T11:07:57Z</time>
      </trkpt>
      <trkpt lat="42.9597" lon="0.21637">
        <ele>1568</ele>
        <time>2014-11-08T11:08:06Z</time>
      </trkpt>
      <trkpt lat="42.95969" lon="0.21635">
        <ele>1568</ele>
        <time>2014-11-08T11:08:19Z</time>
      </trkpt>
      <trkpt lat="42.95968" lon="0.21634">
        <ele>1569</ele>
        <time>2014-11-08T11:08:21Z</time>
      </trkpt>
      <trkpt lat="42.95963" lon="0.21629">
        <ele>1570</ele>
        <time>2014-11-08T11:08:30Z</time>
      </trkpt>
      <trkpt lat="42.95966" lon="0.21619">
        <ele>1572</ele>
        <time>2014-11-08T11:08:54Z</time>
      </trkpt>
      <trkpt lat="42.95984" lon="0.21608">
        <ele>1573</ele>
        <time>2014-11-08T11:09:25Z</time>
      </trkpt>
      <trkpt lat="42.95987" lon="0.21605">
        <ele>1574</ele>
        <time>2014-11-08T11:10:01Z</time>
      </trkpt>
      <trkpt lat="42.9599" lon="0.21601">
        <ele>1575</ele>
        <time>2014-11-08T11:10:06Z</time>
      </trkpt>
      <trkpt lat="42.95992" lon="0.21596">
        <ele>1576</ele>
        <time>2014-11-08T11:10:12Z</time>
      </trkpt>
      <trkpt lat="42.95998" lon="0.21589">
        <ele>1578</ele>
        <time>2014-11-08T11:10:32Z</time>
      </trkpt>
      <trkpt lat="42.96006" lon="0.21565">
        <ele>1587</ele>
        <time>2014-11-08T11:11:01Z</time>
      </trkpt>
      <trkpt lat="42.96004" lon="0.21556">
        <ele>1589</ele>
        <time>2014-11-08T11:11:24Z</time>
      </trkpt>
      <trkpt lat="42.96002" lon="0.21551">
        <ele>1591</ele>
        <time>2014-11-08T11:11:42Z</time>
      </trkpt>
      <trkpt lat="42.95997" lon="0.21548">
        <ele>1597</ele>
        <time>2014-11-08T11:11:49Z</time>
      </trkpt>
      <trkpt lat="42.95997" lon="0.21539">
        <ele>1600</ele>
        <time>2014-11-08T11:12:10Z</time>
      </trkpt>
      <trkpt lat="42.96001" lon="0.21535">
        <ele>1595</ele>
        <time>2014-11-08T11:12:18Z</time>
      </trkpt>
      <trkpt lat="42.96004" lon="0.2153">
        <ele>1597</ele>
        <time>2014-11-08T11:12:35Z</time>
      </trkpt>
      <trkpt lat="42.96011" lon="0.21521">
        <ele>1599</ele>
        <time>2014-11-08T11:12:50Z</time>
      </trkpt>
      <trkpt lat="42.96007" lon="0.21515">
        <ele>1602</ele>
        <time>2014-11-08T11:13:09Z</time>
      </trkpt>
      <trkpt lat="42.95995" lon="0.21505">
        <ele>1610</ele>
        <time>2014-11-08T11:13:42Z</time>
      </trkpt>
      <trkpt lat="42.95987" lon="0.215">
        <ele>1608</ele>
        <time>2014-11-08T11:13:56Z</time>
      </trkpt>
      <trkpt lat="42.95971" lon="0.2149">
        <ele>1619</ele>
        <time>2014-11-08T11:14:27Z</time>
      </trkpt>
      <trkpt lat="42.95965" lon="0.21486">
        <ele>1620</ele>
        <time>2014-11-08T11:14:48Z</time>
      </trkpt>
      <trkpt lat="42.95965" lon="0.21484">
        <ele>1620</ele>
        <time>2014-11-08T11:14:50Z</time>
      </trkpt>
      <trkpt lat="42.95964" lon="0.21482">
        <ele>1620</ele>
        <time>2014-11-08T11:14:52Z</time>
      </trkpt>
      <trkpt lat="42.95961" lon="0.21475">
        <ele>1621</ele>
        <time>2014-11-08T11:14:58Z</time>
      </trkpt>
      <trkpt lat="42.95942" lon="0.21442">
        <ele>1624</ele>
        <time>2014-11-08T11:15:28Z</time>
      </trkpt>
      <trkpt lat="42.95938" lon="0.21435">
        <ele>1624</ele>
        <time>2014-11-08T11:15:37Z</time>
      </trkpt>
      <trkpt lat="42.9594" lon="0.21419">
        <ele>1625</ele>
        <time>2014-11-08T11:15:55Z</time>
      </trkpt>
      <trkpt lat="42.95942" lon="0.21417">
        <ele>1625</ele>
        <time>2014-11-08T11:15:58Z</time>
      </trkpt>
      <trkpt lat="42.95947" lon="0.21406">
        <ele>1637</ele>
        <time>2014-11-08T11:16:14Z</time>
      </trkpt>
      <trkpt lat="42.95947" lon="0.21403">
        <ele>1637</ele>
        <time>2014-11-08T11:16:26Z</time>
      </trkpt>
      <trkpt lat="42.95946" lon="0.21402">
        <ele>1637</ele>
        <time>2014-11-08T11:16:34Z</time>
      </trkpt>
      <trkpt lat="42.95941" lon="0.21394">
        <ele>1638</ele>
        <time>2014-11-08T11:16:56Z</time>
      </trkpt>
      <trkpt lat="42.95941" lon="0.21391">
        <ele>1638</ele>
        <time>2014-11-08T11:17:00Z</time>
      </trkpt>
      <trkpt lat="42.9594" lon="0.21389">
        <ele>1639</ele>
        <time>2014-11-08T11:17:03Z</time>
      </trkpt>
      <trkpt lat="42.95935" lon="0.21374">
        <ele>1641</ele>
        <time>2014-11-08T11:17:32Z</time>
      </trkpt>
      <trkpt lat="42.95931" lon="0.21351">
        <ele>1644</ele>
        <time>2014-11-08T11:18:04Z</time>
      </trkpt>
      <trkpt lat="42.95929" lon="0.21339">
        <ele>1645</ele>
        <time>2014-11-08T11:18:24Z</time>
      </trkpt>
      <trkpt lat="42.95927" lon="0.2132">
        <ele>1655</ele>
        <time>2014-11-08T11:18:55Z</time>
      </trkpt>
      <trkpt lat="42.95926" lon="0.21315">
        <ele>1656</ele>
        <time>2014-11-08T11:19:03Z</time>
      </trkpt>
      <trkpt lat="42.95925" lon="0.21312">
        <ele>1657</ele>
        <time>2014-11-08T11:19:16Z</time>
      </trkpt>
      <trkpt lat="42.9592" lon="0.21292">
        <ele>1662</ele>
        <time>2014-11-08T11:19:38Z</time>
      </trkpt>
      <trkpt lat="42.95915" lon="0.21271">
        <ele>1658</ele>
        <time>2014-11-08T11:20:09Z</time>
      </trkpt>
      <trkpt lat="42.95905" lon="0.2125">
        <ele>1663</ele>
        <time>2014-11-08T11:20:40Z</time>
      </trkpt>
      <trkpt lat="42.95904" lon="0.21246">
        <ele>1670</ele>
        <time>2014-11-08T11:20:45Z</time>
      </trkpt>
      <trkpt lat="42.95903" lon="0.21244">
        <ele>1670</ele>
        <time>2014-11-08T11:20:50Z</time>
      </trkpt>
      <trkpt lat="42.95901" lon="0.21242">
        <ele>1670</ele>
        <time>2014-11-08T11:20:53Z</time>
      </trkpt>
      <trkpt lat="42.959" lon="0.21235">
        <ele>1670</ele>
        <time>2014-11-08T11:21:02Z</time>
      </trkpt>
      <trkpt lat="42.959" lon="0.21233">
        <ele>1670</ele>
        <time>2014-11-08T11:21:07Z</time>
      </trkpt>
      <trkpt lat="42.95899" lon="0.21231">
        <ele>1670</ele>
        <time>2014-11-08T11:21:10Z</time>
      </trkpt>
      <trkpt lat="42.95898" lon="0.21229">
        <ele>1670</ele>
        <time>2014-11-08T11:21:14Z</time>
      </trkpt>
      <trkpt lat="42.95896" lon="0.21223">
        <ele>1670</ele>
        <time>2014-11-08T11:21:36Z</time>
      </trkpt>
      <trkpt lat="42.95896" lon="0.21221">
        <ele>1670</ele>
        <time>2014-11-08T11:22:27Z</time>
      </trkpt>
      <trkpt lat="42.95895" lon="0.21219">
        <ele>1671</ele>
        <time>2014-11-08T11:22:59Z</time>
      </trkpt>
      <trkpt lat="42.95897" lon="0.21211">
        <ele>1672</ele>
        <time>2014-11-08T11:27:05Z</time>
      </trkpt>
      <trkpt lat="42.95908" lon="0.21208">
        <ele>1674</ele>
        <time>2014-11-08T11:27:37Z</time>
      </trkpt>
      <trkpt lat="42.95919" lon="0.21202">
        <ele>1685</ele>
        <time>2014-11-08T11:28:06Z</time>
      </trkpt>
      <trkpt lat="42.9592" lon="0.21199">
        <ele>1686</ele>
        <time>2014-11-08T11:28:10Z</time>
      </trkpt>
      <trkpt lat="42.95922" lon="0.21195">
        <ele>1687</ele>
        <time>2014-11-08T11:28:22Z</time>
      </trkpt>
      <trkpt lat="42.95916" lon="0.21176">
        <ele>1687</ele>
        <time>2014-11-08T11:28:54Z</time>
      </trkpt>
      <trkpt lat="42.95915" lon="0.21174">
        <ele>1689</ele>
        <time>2014-11-08T11:28:57Z</time>
      </trkpt>
      <trkpt lat="42.95914" lon="0.21171">
        <ele>1691</ele>
        <time>2014-11-08T11:29:00Z</time>
      </trkpt>
      <trkpt lat="42.95907" lon="0.21144">
        <ele>1689</ele>
        <time>2014-11-08T11:29:44Z</time>
      </trkpt>
      <trkpt lat="42.95906" lon="0.21142">
        <ele>1689</ele>
        <time>2014-11-08T11:30:49Z</time>
      </trkpt>
      <trkpt lat="42.95907" lon="0.21131">
        <ele>1689</ele>
        <time>2014-11-08T11:31:01Z</time>
      </trkpt>
      <trkpt lat="42.95906" lon="0.2112">
        <ele>1690</ele>
        <time>2014-11-08T11:31:13Z</time>
      </trkpt>
      <trkpt lat="42.9591" lon="0.21081">
        <ele>1702</ele>
        <time>2014-11-08T11:31:45Z</time>
      </trkpt>
      <trkpt lat="42.95911" lon="0.21074">
        <ele>1701</ele>
        <time>2014-11-08T11:31:51Z</time>
      </trkpt>
      <trkpt lat="42.95914" lon="0.21042">
        <ele>1700</ele>
        <time>2014-11-08T11:32:21Z</time>
      </trkpt>
      <trkpt lat="42.95916" lon="0.21004">
        <ele>1710</ele>
        <time>2014-11-08T11:32:52Z</time>
      </trkpt>
      <trkpt lat="42.95921" lon="0.20962">
        <ele>1708</ele>
        <time>2014-11-08T11:33:22Z</time>
      </trkpt>
      <trkpt lat="42.95924" lon="0.20931">
        <ele>1712</ele>
        <time>2014-11-08T11:33:53Z</time>
      </trkpt>
      <trkpt lat="42.95933" lon="0.20896">
        <ele>1713</ele>
        <time>2014-11-08T11:34:24Z</time>
      </trkpt>
      <trkpt lat="42.95946" lon="0.20852">
        <ele>1712</ele>
        <time>2014-11-08T11:34:55Z</time>
      </trkpt>
      <trkpt lat="42.95958" lon="0.20812">
        <ele>1716</ele>
        <time>2014-11-08T11:35:25Z</time>
      </trkpt>
      <trkpt lat="42.95968" lon="0.20777">
        <ele>1718</ele>
        <time>2014-11-08T11:35:55Z</time>
      </trkpt>
      <trkpt lat="42.95979" lon="0.20746">
        <ele>1724</ele>
        <time>2014-11-08T11:36:44Z</time>
      </trkpt>
      <trkpt lat="42.95994" lon="0.20714">
        <ele>1724</ele>
        <time>2014-11-08T11:37:15Z</time>
      </trkpt>
      <trkpt lat="42.96002" lon="0.20674">
        <ele>1730</ele>
        <time>2014-11-08T11:37:46Z</time>
      </trkpt>
      <trkpt lat="42.9601" lon="0.20628">
        <ele>1727</ele>
        <time>2014-11-08T11:38:17Z</time>
      </trkpt>
      <trkpt lat="42.9601" lon="0.20594">
        <ele>1731</ele>
        <time>2014-11-08T11:38:47Z</time>
      </trkpt>
      <trkpt lat="42.96019" lon="0.2055">
        <ele>1736</ele>
        <time>2014-11-08T11:39:18Z</time>
      </trkpt>
      <trkpt lat="42.96025" lon="0.20507">
        <ele>1740</ele>
        <time>2014-11-08T11:39:49Z</time>
      </trkpt>
      <trkpt lat="42.96029" lon="0.20474">
        <ele>1754</ele>
        <time>2014-11-08T11:40:20Z</time>
      </trkpt>
      <trkpt lat="42.96028" lon="0.20466">
        <ele>1755</ele>
        <time>2014-11-08T11:40:29Z</time>
      </trkpt>
      <trkpt lat="42.96028" lon="0.20464">
        <ele>1756</ele>
        <time>2014-11-08T11:40:32Z</time>
      </trkpt>
      <trkpt lat="42.96034" lon="0.20453">
        <ele>1757</ele>
        <time>2014-11-08T11:40:53Z</time>
      </trkpt>
      <trkpt lat="42.96032" lon="0.20452">
        <ele>1757</ele>
        <time>2014-11-08T11:40:56Z</time>
      </trkpt>
      <trkpt lat="42.9603" lon="0.2045">
        <ele>1758</ele>
        <time>2014-11-08T11:41:00Z</time>
      </trkpt>
      <trkpt lat="42.96029" lon="0.20449">
        <ele>1758</ele>
        <time>2014-11-08T11:41:05Z</time>
      </trkpt>
      <trkpt lat="42.96033" lon="0.20439">
        <ele>1759</ele>
        <time>2014-11-08T11:41:29Z</time>
      </trkpt>
      <trkpt lat="42.96032" lon="0.20435">
        <ele>1759</ele>
        <time>2014-11-08T11:41:46Z</time>
      </trkpt>
      <trkpt lat="42.9603" lon="0.2042">
        <ele>1761</ele>
        <time>2014-11-08T11:42:13Z</time>
      </trkpt>
      <trkpt lat="42.96028" lon="0.20418">
        <ele>1761</ele>
        <time>2014-11-08T11:42:17Z</time>
      </trkpt>
      <trkpt lat="42.96028" lon="0.20416">
        <ele>1775</ele>
        <time>2014-11-08T11:42:20Z</time>
      </trkpt>
      <trkpt lat="42.96033" lon="0.20399">
        <ele>1777</ele>
        <time>2014-11-08T11:42:51Z</time>
      </trkpt>
      <trkpt lat="42.96034" lon="0.20395">
        <ele>1778</ele>
        <time>2014-11-08T11:42:57Z</time>
      </trkpt>
      <trkpt lat="42.96042" lon="0.2038">
        <ele>1779</ele>
        <time>2014-11-08T11:43:37Z</time>
      </trkpt>
      <trkpt lat="42.96045" lon="0.20363">
        <ele>1782</ele>
        <time>2014-11-08T11:44:09Z</time>
      </trkpt>
      <trkpt lat="42.96043" lon="0.20338">
        <ele>1785</ele>
        <time>2014-11-08T11:44:39Z</time>
      </trkpt>
      <trkpt lat="42.96041" lon="0.20316">
        <ele>1796</ele>
        <time>2014-11-08T11:45:11Z</time>
      </trkpt>
      <trkpt lat="42.96033" lon="0.20296">
        <ele>1798</ele>
        <time>2014-11-08T11:45:41Z</time>
      </trkpt>
      <trkpt lat="42.96018" lon="0.20274">
        <ele>1803</ele>
        <time>2014-11-08T11:46:12Z</time>
      </trkpt>
      <trkpt lat="42.96016" lon="0.20272">
        <ele>1804</ele>
        <time>2014-11-08T11:46:14Z</time>
      </trkpt>
      <trkpt lat="42.96015" lon="0.20269">
        <ele>1805</ele>
        <time>2014-11-08T11:46:17Z</time>
      </trkpt>
      <trkpt lat="42.96014" lon="0.20265">
        <ele>1806</ele>
        <time>2014-11-08T11:46:22Z</time>
      </trkpt>
      <trkpt lat="42.95998" lon="0.20244">
        <ele>1819</ele>
        <time>2014-11-08T11:46:52Z</time>
      </trkpt>
      <trkpt lat="42.95997" lon="0.20241">
        <ele>1820</ele>
        <time>2014-11-08T11:46:55Z</time>
      </trkpt>
      <trkpt lat="42.95984" lon="0.20217">
        <ele>1822</ele>
        <time>2014-11-08T11:47:26Z</time>
      </trkpt>
      <trkpt lat="42.95982" lon="0.20215">
        <ele>1822</ele>
        <time>2014-11-08T11:47:29Z</time>
      </trkpt>
      <trkpt lat="42.95968" lon="0.20196">
        <ele>1824</ele>
        <time>2014-11-08T11:48:02Z</time>
      </trkpt>
      <trkpt lat="42.95967" lon="0.20195">
        <ele>1824</ele>
        <time>2014-11-08T11:48:05Z</time>
      </trkpt>
      <trkpt lat="42.95965" lon="0.20193">
        <ele>1824</ele>
        <time>2014-11-08T11:48:10Z</time>
      </trkpt>
      <trkpt lat="42.95963" lon="0.20191">
        <ele>1824</ele>
        <time>2014-11-08T11:48:14Z</time>
      </trkpt>
      <trkpt lat="42.95962" lon="0.2019">
        <ele>1824</ele>
        <time>2014-11-08T11:48:16Z</time>
      </trkpt>
      <trkpt lat="42.9596" lon="0.20189">
        <ele>1825</ele>
        <time>2014-11-08T11:48:19Z</time>
      </trkpt>
      <trkpt lat="42.95959" lon="0.20188">
        <ele>1825</ele>
        <time>2014-11-08T11:48:22Z</time>
      </trkpt>
      <trkpt lat="42.95957" lon="0.20186">
        <ele>1825</ele>
        <time>2014-11-08T11:48:25Z</time>
      </trkpt>
      <trkpt lat="42.95944" lon="0.20166">
        <ele>1832</ele>
        <time>2014-11-08T11:48:56Z</time>
      </trkpt>
      <trkpt lat="42.95943" lon="0.20165">
        <ele>1832</ele>
        <time>2014-11-08T11:48:58Z</time>
      </trkpt>
      <trkpt lat="42.95942" lon="0.20164">
        <ele>1832</ele>
        <time>2014-11-08T11:49:00Z</time>
      </trkpt>
      <trkpt lat="42.9593" lon="0.20147">
        <ele>1833</ele>
        <time>2014-11-08T11:49:31Z</time>
      </trkpt>
      <trkpt lat="42.95915" lon="0.20127">
        <ele>1833</ele>
        <time>2014-11-08T11:50:03Z</time>
      </trkpt>
      <trkpt lat="42.95913" lon="0.20125">
        <ele>1833</ele>
        <time>2014-11-08T11:50:05Z</time>
      </trkpt>
      <trkpt lat="42.95903" lon="0.20123">
        <ele>1833</ele>
        <time>2014-11-08T11:50:18Z</time>
      </trkpt>
      <trkpt lat="42.95898" lon="0.20113">
        <ele>1833</ele>
        <time>2014-11-08T11:50:29Z</time>
      </trkpt>
      <trkpt lat="42.95888" lon="0.20082">
        <ele>1843</ele>
        <time>2014-11-08T11:51:02Z</time>
      </trkpt>
      <trkpt lat="42.95878" lon="0.2005">
        <ele>1843</ele>
        <time>2014-11-08T11:51:33Z</time>
      </trkpt>
      <trkpt lat="42.95877" lon="0.20047">
        <ele>1843</ele>
        <time>2014-11-08T11:51:35Z</time>
      </trkpt>
      <trkpt lat="42.95868" lon="0.20014">
        <ele>1844</ele>
        <time>2014-11-08T11:52:06Z</time>
      </trkpt>
      <trkpt lat="42.95867" lon="0.20003">
        <ele>1845</ele>
        <time>2014-11-08T11:52:17Z</time>
      </trkpt>
      <trkpt lat="42.95867" lon="0.19992">
        <ele>1852</ele>
        <time>2014-11-08T11:52:29Z</time>
      </trkpt>
      <trkpt lat="42.95865" lon="0.1999">
        <ele>1852</ele>
        <time>2014-11-08T11:52:32Z</time>
      </trkpt>
      <trkpt lat="42.95863" lon="0.1999">
        <ele>1852</ele>
        <time>2014-11-08T11:52:35Z</time>
      </trkpt>
      <trkpt lat="42.95861" lon="0.1999">
        <ele>1851</ele>
        <time>2014-11-08T11:52:37Z</time>
      </trkpt>
      <trkpt lat="42.9586" lon="0.19988">
        <ele>1852</ele>
        <time>2014-11-08T11:52:39Z</time>
      </trkpt>
      <trkpt lat="42.95859" lon="0.19976">
        <ele>1852</ele>
        <time>2014-11-08T11:52:51Z</time>
      </trkpt>
      <trkpt lat="42.95859" lon="0.19973">
        <ele>1853</ele>
        <time>2014-11-08T11:52:55Z</time>
      </trkpt>
      <trkpt lat="42.95858" lon="0.19962">
        <ele>1853</ele>
        <time>2014-11-08T11:53:06Z</time>
      </trkpt>
      <trkpt lat="42.95864" lon="0.19942">
        <ele>1855</ele>
        <time>2014-11-08T11:53:26Z</time>
      </trkpt>
      <trkpt lat="42.95862" lon="0.19923">
        <ele>1856</ele>
        <time>2014-11-08T11:53:42Z</time>
      </trkpt>
      <trkpt lat="42.95856" lon="0.19906">
        <ele>1862</ele>
        <time>2014-11-08T11:54:02Z</time>
      </trkpt>
      <trkpt lat="42.95857" lon="0.19904">
        <ele>1862</ele>
        <time>2014-11-08T11:54:08Z</time>
      </trkpt>
      <trkpt lat="42.95856" lon="0.19896">
        <ele>1863</ele>
        <time>2014-11-08T11:54:16Z</time>
      </trkpt>
      <trkpt lat="42.9586" lon="0.19888">
        <ele>1863</ele>
        <time>2014-11-08T11:54:24Z</time>
      </trkpt>
      <trkpt lat="42.9586" lon="0.19886">
        <ele>1863</ele>
        <time>2014-11-08T11:54:26Z</time>
      </trkpt>
      <trkpt lat="42.95859" lon="0.19883">
        <ele>1863</ele>
        <time>2014-11-08T11:54:29Z</time>
      </trkpt>
      <trkpt lat="42.95864" lon="0.19845">
        <ele>1866</ele>
        <time>2014-11-08T11:55:01Z</time>
      </trkpt>
      <trkpt lat="42.95868" lon="0.19808">
        <ele>1871</ele>
        <time>2014-11-08T11:55:31Z</time>
      </trkpt>
      <trkpt lat="42.95869" lon="0.19805">
        <ele>1871</ele>
        <time>2014-11-08T11:55:33Z</time>
      </trkpt>
      <trkpt lat="42.95869" lon="0.19803">
        <ele>1871</ele>
        <time>2014-11-08T11:55:35Z</time>
      </trkpt>
      <trkpt lat="42.95869" lon="0.19795">
        <ele>1871</ele>
        <time>2014-11-08T11:55:41Z</time>
      </trkpt>
      <trkpt lat="42.9587" lon="0.19792">
        <ele>1871</ele>
        <time>2014-11-08T11:55:44Z</time>
      </trkpt>
      <trkpt lat="42.95869" lon="0.19787">
        <ele>1871</ele>
        <time>2014-11-08T11:55:50Z</time>
      </trkpt>
      <trkpt lat="42.9587" lon="0.19784">
        <ele>1871</ele>
        <time>2014-11-08T11:55:52Z</time>
      </trkpt>
      <trkpt lat="42.95874" lon="0.19782">
        <ele>1871</ele>
        <time>2014-11-08T11:56:01Z</time>
      </trkpt>
      <trkpt lat="42.95875" lon="0.19778">
        <ele>1871</ele>
        <time>2014-11-08T11:56:08Z</time>
      </trkpt>
      <trkpt lat="42.95874" lon="0.19766">
        <ele>1872</ele>
        <time>2014-11-08T11:56:25Z</time>
      </trkpt>
      <trkpt lat="42.95877" lon="0.19766">
        <ele>1872</ele>
        <time>2014-11-08T11:57:07Z</time>
      </trkpt>
      <trkpt lat="42.95874" lon="0.19764">
        <ele>1872</ele>
        <time>2014-11-08T12:45:55Z</time>
      </trkpt>
      <trkpt lat="42.95874" lon="0.19764">
        <ele>1872</ele>
        <time>2014-11-08T12:45:56Z</time>
      </trkpt>
      <trkpt lat="42.95875" lon="0.19765">
        <ele>1872</ele>
        <time>2014-11-08T12:49:10Z</time>
      </trkpt>
      <trkpt lat="42.95876" lon="0.1977">
        <ele>1872</ele>
        <time>2014-11-08T12:49:16Z</time>
      </trkpt>
      <trkpt lat="42.95877" lon="0.19772">
        <ele>1871</ele>
        <time>2014-11-08T12:49:20Z</time>
      </trkpt>
      <trkpt lat="42.95876" lon="0.19775">
        <ele>1871</ele>
        <time>2014-11-08T12:49:24Z</time>
      </trkpt>
      <trkpt lat="42.95872" lon="0.19781">
        <ele>1871</ele>
        <time>2014-11-08T12:49:33Z</time>
      </trkpt>
      <trkpt lat="42.9587" lon="0.19782">
        <ele>1871</ele>
        <time>2014-11-08T12:49:35Z</time>
      </trkpt>
      <trkpt lat="42.95869" lon="0.19785">
        <ele>1871</ele>
        <time>2014-11-08T12:49:50Z</time>
      </trkpt>
      <trkpt lat="42.95869" lon="0.19787">
        <ele>1871</ele>
        <time>2014-11-08T12:49:54Z</time>
      </trkpt>
      <trkpt lat="42.95871" lon="0.1979">
        <ele>1871</ele>
        <time>2014-11-08T12:49:57Z</time>
      </trkpt>
      <trkpt lat="42.95871" lon="0.19792">
        <ele>1871</ele>
        <time>2014-11-08T12:49:59Z</time>
      </trkpt>
      <trkpt lat="42.95876" lon="0.19836">
        <ele>1865</ele>
        <time>2014-11-08T12:50:30Z</time>
      </trkpt>
      <trkpt lat="42.95883" lon="0.19867">
        <ele>1864</ele>
        <time>2014-11-08T12:50:56Z</time>
      </trkpt>
      <trkpt lat="42.95879" lon="0.19873">
        <ele>1864</ele>
        <time>2014-11-08T12:51:03Z</time>
      </trkpt>
      <trkpt lat="42.95878" lon="0.19879">
        <ele>1863</ele>
        <time>2014-11-08T12:51:20Z</time>
      </trkpt>
      <trkpt lat="42.95877" lon="0.19898">
        <ele>1863</ele>
        <time>2014-11-08T12:51:34Z</time>
      </trkpt>
      <trkpt lat="42.95873" lon="0.19902">
        <ele>1862</ele>
        <time>2014-11-08T12:51:40Z</time>
      </trkpt>
      <trkpt lat="42.95865" lon="0.1992">
        <ele>1856</ele>
        <time>2014-11-08T12:51:58Z</time>
      </trkpt>
      <trkpt lat="42.95862" lon="0.1992">
        <ele>1856</ele>
        <time>2014-11-08T12:52:03Z</time>
      </trkpt>
      <trkpt lat="42.95861" lon="0.19923">
        <ele>1856</ele>
        <time>2014-11-08T12:52:32Z</time>
      </trkpt>
      <trkpt lat="42.95866" lon="0.19957">
        <ele>1854</ele>
        <time>2014-11-08T12:53:03Z</time>
      </trkpt>
      <trkpt lat="42.95867" lon="0.19978">
        <ele>1852</ele>
        <time>2014-11-08T12:53:23Z</time>
      </trkpt>
      <trkpt lat="42.95864" lon="0.19983">
        <ele>1852</ele>
        <time>2014-11-08T12:53:27Z</time>
      </trkpt>
      <trkpt lat="42.95863" lon="0.19986">
        <ele>1852</ele>
        <time>2014-11-08T12:53:30Z</time>
      </trkpt>
      <trkpt lat="42.95874" lon="0.20026">
        <ele>1844</ele>
        <time>2014-11-08T12:54:01Z</time>
      </trkpt>
      <trkpt lat="42.95881" lon="0.20051">
        <ele>1843</ele>
        <time>2014-11-08T12:54:31Z</time>
      </trkpt>
      <trkpt lat="42.95896" lon="0.20091">
        <ele>1837</ele>
        <time>2014-11-08T12:55:01Z</time>
      </trkpt>
      <trkpt lat="42.95907" lon="0.20135">
        <ele>1832</ele>
        <time>2014-11-08T12:55:31Z</time>
      </trkpt>
      <trkpt lat="42.95915" lon="0.20172">
        <ele>1831</ele>
        <time>2014-11-08T12:56:01Z</time>
      </trkpt>
      <trkpt lat="42.95933" lon="0.20197">
        <ele>1826</ele>
        <time>2014-11-08T12:56:31Z</time>
      </trkpt>
      <trkpt lat="42.95942" lon="0.20208">
        <ele>1825</ele>
        <time>2014-11-08T12:56:43Z</time>
      </trkpt>
      <trkpt lat="42.9596" lon="0.20232">
        <ele>1822</ele>
        <time>2014-11-08T12:57:14Z</time>
      </trkpt>
      <trkpt lat="42.95976" lon="0.20245">
        <ele>1821</ele>
        <time>2014-11-08T12:57:47Z</time>
      </trkpt>
      <trkpt lat="42.95985" lon="0.20251">
        <ele>1812</ele>
        <time>2014-11-08T12:58:25Z</time>
      </trkpt>
      <trkpt lat="42.95987" lon="0.20253">
        <ele>1813</ele>
        <time>2014-11-08T12:59:14Z</time>
      </trkpt>
      <trkpt lat="42.95993" lon="0.20261">
        <ele>1813</ele>
        <time>2014-11-08T12:59:29Z</time>
      </trkpt>
      <trkpt lat="42.96011" lon="0.20286">
        <ele>1802</ele>
        <time>2014-11-08T13:00:00Z</time>
      </trkpt>
      <trkpt lat="42.96026" lon="0.20316">
        <ele>1798</ele>
        <time>2014-11-08T13:00:31Z</time>
      </trkpt>
      <trkpt lat="42.96027" lon="0.20318">
        <ele>1798</ele>
        <time>2014-11-08T13:00:33Z</time>
      </trkpt>
      <trkpt lat="42.96029" lon="0.20318">
        <ele>1798</ele>
        <time>2014-11-08T13:00:35Z</time>
      </trkpt>
      <trkpt lat="42.9603" lon="0.2032">
        <ele>1798</ele>
        <time>2014-11-08T13:01:33Z</time>
      </trkpt>
      <trkpt lat="42.96031" lon="0.20322">
        <ele>1797</ele>
        <time>2014-11-08T13:03:44Z</time>
      </trkpt>
      <trkpt lat="42.96032" lon="0.20335">
        <ele>1787</ele>
        <time>2014-11-08T13:04:04Z</time>
      </trkpt>
      <trkpt lat="42.96033" lon="0.20334">
        <ele>1787</ele>
        <time>2014-11-08T13:05:31Z</time>
      </trkpt>
      <trkpt lat="42.96047" lon="0.20333">
        <ele>1795</ele>
        <time>2014-11-08T13:06:07Z</time>
      </trkpt>
      <trkpt lat="42.9606" lon="0.20334">
        <ele>1784</ele>
        <time>2014-11-08T13:06:38Z</time>
      </trkpt>
      <trkpt lat="42.96081" lon="0.20334">
        <ele>1786</ele>
        <time>2014-11-08T13:07:13Z</time>
      </trkpt>
      <trkpt lat="42.96102" lon="0.20335">
        <ele>1772</ele>
        <time>2014-11-08T13:07:43Z</time>
      </trkpt>
      <trkpt lat="42.96106" lon="0.20336">
        <ele>1770</ele>
        <time>2014-11-08T13:07:47Z</time>
      </trkpt>
      <trkpt lat="42.96134" lon="0.20346">
        <ele>1759</ele>
        <time>2014-11-08T13:08:17Z</time>
      </trkpt>
      <trkpt lat="42.96164" lon="0.20361">
        <ele>1754</ele>
        <time>2014-11-08T13:08:47Z</time>
      </trkpt>
      <trkpt lat="42.96197" lon="0.20373">
        <ele>1732</ele>
        <time>2014-11-08T13:09:17Z</time>
      </trkpt>
      <trkpt lat="42.96219" lon="0.20384">
        <ele>1728</ele>
        <time>2014-11-08T13:09:47Z</time>
      </trkpt>
      <trkpt lat="42.96241" lon="0.2038">
        <ele>1727</ele>
        <time>2014-11-08T13:10:13Z</time>
      </trkpt>
      <trkpt lat="42.96242" lon="0.20381">
        <ele>1726</ele>
        <time>2014-11-08T13:10:15Z</time>
      </trkpt>
      <trkpt lat="42.96246" lon="0.20379">
        <ele>1726</ele>
        <time>2014-11-08T13:10:21Z</time>
      </trkpt>
      <trkpt lat="42.96264" lon="0.20401">
        <ele>1711</ele>
        <time>2014-11-08T13:10:53Z</time>
      </trkpt>
      <trkpt lat="42.96269" lon="0.20407">
        <ele>1711</ele>
        <time>2014-11-08T13:10:59Z</time>
      </trkpt>
      <trkpt lat="42.96297" lon="0.20416">
        <ele>1706</ele>
        <time>2014-11-08T13:11:30Z</time>
      </trkpt>
      <trkpt lat="42.96326" lon="0.2042">
        <ele>1695</ele>
        <time>2014-11-08T13:12:02Z</time>
      </trkpt>
      <trkpt lat="42.96338" lon="0.20421">
        <ele>1689</ele>
        <time>2014-11-08T13:12:17Z</time>
      </trkpt>
      <trkpt lat="42.96342" lon="0.20419">
        <ele>1687</ele>
        <time>2014-11-08T13:12:22Z</time>
      </trkpt>
      <trkpt lat="42.9637" lon="0.20422">
        <ele>1673</ele>
        <time>2014-11-08T13:12:53Z</time>
      </trkpt>
      <trkpt lat="42.96378" lon="0.20424">
        <ele>1670</ele>
        <time>2014-11-08T13:13:02Z</time>
      </trkpt>
      <trkpt lat="42.96383" lon="0.20428">
        <ele>1669</ele>
        <time>2014-11-08T13:13:08Z</time>
      </trkpt>
      <trkpt lat="42.96388" lon="0.20427">
        <ele>1668</ele>
        <time>2014-11-08T13:13:14Z</time>
      </trkpt>
      <trkpt lat="42.96393" lon="0.20431">
        <ele>1667</ele>
        <time>2014-11-08T13:13:25Z</time>
      </trkpt>
      <trkpt lat="42.96396" lon="0.2043">
        <ele>1666</ele>
        <time>2014-11-08T13:13:30Z</time>
      </trkpt>
      <trkpt lat="42.96425" lon="0.20441">
        <ele>1646</ele>
        <time>2014-11-08T13:14:01Z</time>
      </trkpt>
      <trkpt lat="42.96432" lon="0.20445">
        <ele>1644</ele>
        <time>2014-11-08T13:14:10Z</time>
      </trkpt>
      <trkpt lat="42.96433" lon="0.2045">
        <ele>1642</ele>
        <time>2014-11-08T13:14:16Z</time>
      </trkpt>
      <trkpt lat="42.96435" lon="0.2045">
        <ele>1642</ele>
        <time>2014-11-08T13:14:18Z</time>
      </trkpt>
      <trkpt lat="42.96439" lon="0.20444">
        <ele>1642</ele>
        <time>2014-11-08T13:14:25Z</time>
      </trkpt>
      <trkpt lat="42.96441" lon="0.20445">
        <ele>1642</ele>
        <time>2014-11-08T13:14:27Z</time>
      </trkpt>
      <trkpt lat="42.96442" lon="0.20448">
        <ele>1641</ele>
        <time>2014-11-08T13:14:30Z</time>
      </trkpt>
      <trkpt lat="42.96442" lon="0.20452">
        <ele>1640</ele>
        <time>2014-11-08T13:14:33Z</time>
      </trkpt>
      <trkpt lat="42.96444" lon="0.20454">
        <ele>1640</ele>
        <time>2014-11-08T13:14:36Z</time>
      </trkpt>
      <trkpt lat="42.96443" lon="0.20461">
        <ele>1639</ele>
        <time>2014-11-08T13:14:44Z</time>
      </trkpt>
      <trkpt lat="42.96445" lon="0.20462">
        <ele>1638</ele>
        <time>2014-11-08T13:14:51Z</time>
      </trkpt>
      <trkpt lat="42.96446" lon="0.20465">
        <ele>1638</ele>
        <time>2014-11-08T13:15:00Z</time>
      </trkpt>
      <trkpt lat="42.96455" lon="0.20452">
        <ele>1638</ele>
        <time>2014-11-08T13:15:23Z</time>
      </trkpt>
      <trkpt lat="42.9646" lon="0.20466">
        <ele>1635</ele>
        <time>2014-11-08T13:15:53Z</time>
      </trkpt>
      <trkpt lat="42.96463" lon="0.20473">
        <ele>1634</ele>
        <time>2014-11-08T13:16:13Z</time>
      </trkpt>
      <trkpt lat="42.96467" lon="0.2048">
        <ele>1633</ele>
        <time>2014-11-08T13:16:29Z</time>
      </trkpt>
      <trkpt lat="42.96468" lon="0.20485">
        <ele>1632</ele>
        <time>2014-11-08T13:16:44Z</time>
      </trkpt>
      <trkpt lat="42.96468" lon="0.20492">
        <ele>1631</ele>
        <time>2014-11-08T13:16:55Z</time>
      </trkpt>
      <trkpt lat="42.96473" lon="0.20496">
        <ele>1630</ele>
        <time>2014-11-08T13:17:12Z</time>
      </trkpt>
      <trkpt lat="42.96474" lon="0.20496">
        <ele>1629</ele>
        <time>2014-11-08T13:17:15Z</time>
      </trkpt>
      <trkpt lat="42.96477" lon="0.20499">
        <ele>1628</ele>
        <time>2014-11-08T13:17:23Z</time>
      </trkpt>
      <trkpt lat="42.96482" lon="0.20501">
        <ele>1616</ele>
        <time>2014-11-08T13:17:32Z</time>
      </trkpt>
      <trkpt lat="42.9649" lon="0.20519">
        <ele>1614</ele>
        <time>2014-11-08T13:18:02Z</time>
      </trkpt>
      <trkpt lat="42.96501" lon="0.20535">
        <ele>1594</ele>
        <time>2014-11-08T13:18:24Z</time>
      </trkpt>
      <trkpt lat="42.96508" lon="0.20537">
        <ele>1593</ele>
        <time>2014-11-08T13:18:36Z</time>
      </trkpt>
      <trkpt lat="42.96511" lon="0.20537">
        <ele>1592</ele>
        <time>2014-11-08T13:18:39Z</time>
      </trkpt>
      <trkpt lat="42.96512" lon="0.20543">
        <ele>1591</ele>
        <time>2014-11-08T13:18:45Z</time>
      </trkpt>
      <trkpt lat="42.96514" lon="0.20551">
        <ele>1590</ele>
        <time>2014-11-08T13:18:55Z</time>
      </trkpt>
      <trkpt lat="42.96526" lon="0.20573">
        <ele>1586</ele>
        <time>2014-11-08T13:19:26Z</time>
      </trkpt>
      <trkpt lat="42.96542" lon="0.20597">
        <ele>1571</ele>
        <time>2014-11-08T13:19:59Z</time>
      </trkpt>
      <trkpt lat="42.96553" lon="0.20614">
        <ele>1568</ele>
        <time>2014-11-08T13:20:21Z</time>
      </trkpt>
      <trkpt lat="42.96554" lon="0.20618">
        <ele>1567</ele>
        <time>2014-11-08T13:20:25Z</time>
      </trkpt>
      <trkpt lat="42.96554" lon="0.20621">
        <ele>1567</ele>
        <time>2014-11-08T13:20:28Z</time>
      </trkpt>
      <trkpt lat="42.96556" lon="0.20623">
        <ele>1567</ele>
        <time>2014-11-08T13:20:31Z</time>
      </trkpt>
      <trkpt lat="42.96559" lon="0.20623">
        <ele>1567</ele>
        <time>2014-11-08T13:20:35Z</time>
      </trkpt>
      <trkpt lat="42.96577" lon="0.20649">
        <ele>1562</ele>
        <time>2014-11-08T13:21:05Z</time>
      </trkpt>
      <trkpt lat="42.96584" lon="0.2066">
        <ele>1554</ele>
        <time>2014-11-08T13:21:15Z</time>
      </trkpt>
      <trkpt lat="42.96586" lon="0.20661">
        <ele>1554</ele>
        <time>2014-11-08T13:23:03Z</time>
      </trkpt>
      <trkpt lat="42.96589" lon="0.20662">
        <ele>1554</ele>
        <time>2014-11-08T13:23:51Z</time>
      </trkpt>
      <trkpt lat="42.96592" lon="0.20664">
        <ele>1554</ele>
        <time>2014-11-08T13:24:33Z</time>
      </trkpt>
      <trkpt lat="42.96604" lon="0.20676">
        <ele>1547</ele>
        <time>2014-11-08T13:24:49Z</time>
      </trkpt>
      <trkpt lat="42.9663" lon="0.20693">
        <ele>1542</ele>
        <time>2014-11-08T13:25:19Z</time>
      </trkpt>
      <trkpt lat="42.96632" lon="0.20698">
        <ele>1541</ele>
        <time>2014-11-08T13:25:29Z</time>
      </trkpt>
      <trkpt lat="42.96638" lon="0.20702">
        <ele>1541</ele>
        <time>2014-11-08T13:25:35Z</time>
      </trkpt>
      <trkpt lat="42.96662" lon="0.20717">
        <ele>1540</ele>
        <time>2014-11-08T13:26:05Z</time>
      </trkpt>
      <trkpt lat="42.96688" lon="0.20739">
        <ele>1531</ele>
        <time>2014-11-08T13:26:35Z</time>
      </trkpt>
      <trkpt lat="42.96717" lon="0.20757">
        <ele>1524</ele>
        <time>2014-11-08T13:27:06Z</time>
      </trkpt>
      <trkpt lat="42.96741" lon="0.20773">
        <ele>1522</ele>
        <time>2014-11-08T13:27:35Z</time>
      </trkpt>
      <trkpt lat="42.96742" lon="0.20778">
        <ele>1522</ele>
        <time>2014-11-08T13:27:40Z</time>
      </trkpt>
      <trkpt lat="42.96741" lon="0.20787">
        <ele>1522</ele>
        <time>2014-11-08T13:27:47Z</time>
      </trkpt>
      <trkpt lat="42.96742" lon="0.20788">
        <ele>1522</ele>
        <time>2014-11-08T13:29:29Z</time>
      </trkpt>
      <trkpt lat="42.96744" lon="0.20789">
        <ele>1521</ele>
        <time>2014-11-08T13:29:34Z</time>
      </trkpt>
      <trkpt lat="42.96771" lon="0.20812">
        <ele>1510</ele>
        <time>2014-11-08T13:30:04Z</time>
      </trkpt>
      <trkpt lat="42.96802" lon="0.20833">
        <ele>1505</ele>
        <time>2014-11-08T13:30:35Z</time>
      </trkpt>
      <trkpt lat="42.96829" lon="0.20843">
        <ele>1498</ele>
        <time>2014-11-08T13:31:05Z</time>
      </trkpt>
      <trkpt lat="42.96833" lon="0.20841">
        <ele>1498</ele>
        <time>2014-11-08T13:31:09Z</time>
      </trkpt>
      <trkpt lat="42.96839" lon="0.20846">
        <ele>1489</ele>
        <time>2014-11-08T13:31:17Z</time>
      </trkpt>
      <trkpt lat="42.96865" lon="0.20832">
        <ele>1482</ele>
        <time>2014-11-08T13:31:49Z</time>
      </trkpt>
      <trkpt lat="42.96872" lon="0.20832">
        <ele>1480</ele>
        <time>2014-11-08T13:31:59Z</time>
      </trkpt>
      <trkpt lat="42.96876" lon="0.20835">
        <ele>1479</ele>
        <time>2014-11-08T13:32:05Z</time>
      </trkpt>
      <trkpt lat="42.96881" lon="0.20833">
        <ele>1478</ele>
        <time>2014-11-08T13:32:11Z</time>
      </trkpt>
      <trkpt lat="42.96882" lon="0.20831">
        <ele>1477</ele>
        <time>2014-11-08T13:32:14Z</time>
      </trkpt>
      <trkpt lat="42.96885" lon="0.20831">
        <ele>1477</ele>
        <time>2014-11-08T13:32:17Z</time>
      </trkpt>
      <trkpt lat="42.96888" lon="0.20833">
        <ele>1476</ele>
        <time>2014-11-08T13:32:22Z</time>
      </trkpt>
      <trkpt lat="42.96892" lon="0.2083">
        <ele>1475</ele>
        <time>2014-11-08T13:32:32Z</time>
      </trkpt>
      <trkpt lat="42.96911" lon="0.20831">
        <ele>1470</ele>
        <time>2014-11-08T13:33:03Z</time>
      </trkpt>
      <trkpt lat="42.96922" lon="0.20839">
        <ele>1462</ele>
        <time>2014-11-08T13:33:17Z</time>
      </trkpt>
      <trkpt lat="42.96927" lon="0.20838">
        <ele>1460</ele>
        <time>2014-11-08T13:33:22Z</time>
      </trkpt>
      <trkpt lat="42.96931" lon="0.20841">
        <ele>1457</ele>
        <time>2014-11-08T13:33:27Z</time>
      </trkpt>
      <trkpt lat="42.9696" lon="0.20837">
        <ele>1449</ele>
        <time>2014-11-08T13:33:58Z</time>
      </trkpt>
      <trkpt lat="42.96982" lon="0.20835">
        <ele>1444</ele>
        <time>2014-11-08T13:34:32Z</time>
      </trkpt>
      <trkpt lat="42.9699" lon="0.20827">
        <ele>1444</ele>
        <time>2014-11-08T13:34:44Z</time>
      </trkpt>
      <trkpt lat="42.96992" lon="0.20822">
        <ele>1444</ele>
        <time>2014-11-08T13:34:49Z</time>
      </trkpt>
      <trkpt lat="42.97017" lon="0.20818">
        <ele>1430</ele>
        <time>2014-11-08T13:35:19Z</time>
      </trkpt>
      <trkpt lat="42.9704" lon="0.20814">
        <ele>1424</ele>
        <time>2014-11-08T13:35:51Z</time>
      </trkpt>
      <trkpt lat="42.97047" lon="0.20812">
        <ele>1423</ele>
        <time>2014-11-08T13:35:58Z</time>
      </trkpt>
      <trkpt lat="42.97069" lon="0.20824">
        <ele>1418</ele>
        <time>2014-11-08T13:36:28Z</time>
      </trkpt>
      <trkpt lat="42.97101" lon="0.20829">
        <ele>1407</ele>
        <time>2014-11-08T13:36:58Z</time>
      </trkpt>
      <trkpt lat="42.97108" lon="0.20827">
        <ele>1406</ele>
        <time>2014-11-08T13:37:04Z</time>
      </trkpt>
      <trkpt lat="42.97132" lon="0.20838">
        <ele>1400</ele>
        <time>2014-11-08T13:37:34Z</time>
      </trkpt>
      <trkpt lat="42.97162" lon="0.20855">
        <ele>1398</ele>
        <time>2014-11-08T13:38:08Z</time>
      </trkpt>
      <trkpt lat="42.97188" lon="0.2087">
        <ele>1386</ele>
        <time>2014-11-08T13:38:41Z</time>
      </trkpt>
      <trkpt lat="42.97216" lon="0.20888">
        <ele>1383</ele>
        <time>2014-11-08T13:39:11Z</time>
      </trkpt>
      <trkpt lat="42.9723" lon="0.20896">
        <ele>1381</ele>
        <time>2014-11-08T13:39:27Z</time>
      </trkpt>
      <trkpt lat="42.97252" lon="0.20922">
        <ele>1371</ele>
        <time>2014-11-08T13:39:57Z</time>
      </trkpt>
      <trkpt lat="42.97276" lon="0.20954">
        <ele>1358</ele>
        <time>2014-11-08T13:40:29Z</time>
      </trkpt>
      <trkpt lat="42.97304" lon="0.20984">
        <ele>1354</ele>
        <time>2014-11-08T13:40:59Z</time>
      </trkpt>
      <trkpt lat="42.97307" lon="0.2099">
        <ele>1354</ele>
        <time>2014-11-08T13:41:05Z</time>
      </trkpt>
      <trkpt lat="42.97315" lon="0.20996">
        <ele>1353</ele>
        <time>2014-11-08T13:41:14Z</time>
      </trkpt>
      <trkpt lat="42.97316" lon="0.20998">
        <ele>1353</ele>
        <time>2014-11-08T13:46:33Z</time>
      </trkpt>
      <trkpt lat="42.97347" lon="0.21011">
        <ele>1344</ele>
        <time>2014-11-08T13:47:01Z</time>
      </trkpt>
      <trkpt lat="42.97351" lon="0.21021">
        <ele>1342</ele>
        <time>2014-11-08T13:47:09Z</time>
      </trkpt>
      <trkpt lat="42.97375" lon="0.2105">
        <ele>1338</ele>
        <time>2014-11-08T13:47:39Z</time>
      </trkpt>
      <trkpt lat="42.97396" lon="0.21082">
        <ele>1338</ele>
        <time>2014-11-08T13:48:10Z</time>
      </trkpt>
      <trkpt lat="42.97423" lon="0.21104">
        <ele>1330</ele>
        <time>2014-11-08T13:48:41Z</time>
      </trkpt>
      <trkpt lat="42.97429" lon="0.2111">
        <ele>1328</ele>
        <time>2014-11-08T13:48:49Z</time>
      </trkpt>
      <trkpt lat="42.97433" lon="0.21122">
        <ele>1327</ele>
        <time>2014-11-08T13:49:02Z</time>
      </trkpt>
      <trkpt lat="42.97435" lon="0.21123">
        <ele>1327</ele>
        <time>2014-11-08T13:49:04Z</time>
      </trkpt>
      <trkpt lat="42.9747" lon="0.21139">
        <ele>1321</ele>
        <time>2014-11-08T13:49:37Z</time>
      </trkpt>
      <trkpt lat="42.9748" lon="0.21144">
        <ele>1319</ele>
        <time>2014-11-08T13:49:49Z</time>
      </trkpt>
      <trkpt lat="42.97487" lon="0.21142">
        <ele>1318</ele>
        <time>2014-11-08T13:49:55Z</time>
      </trkpt>
      <trkpt lat="42.97488" lon="0.2114">
        <ele>1318</ele>
        <time>2014-11-08T13:49:57Z</time>
      </trkpt>
      <trkpt lat="42.97489" lon="0.21134">
        <ele>1318</ele>
        <time>2014-11-08T13:50:01Z</time>
      </trkpt>
      <trkpt lat="42.97496" lon="0.21126">
        <ele>1317</ele>
        <time>2014-11-08T13:50:11Z</time>
      </trkpt>
      <trkpt lat="42.97499" lon="0.21123">
        <ele>1317</ele>
        <time>2014-11-08T13:50:15Z</time>
      </trkpt>
      <trkpt lat="42.97529" lon="0.21131">
        <ele>1301</ele>
        <time>2014-11-08T13:50:45Z</time>
      </trkpt>
      <trkpt lat="42.97565" lon="0.21138">
        <ele>1297</ele>
        <time>2014-11-08T13:51:15Z</time>
      </trkpt>
      <trkpt lat="42.97576" lon="0.21143">
        <ele>1296</ele>
        <time>2014-11-08T13:51:25Z</time>
      </trkpt>
      <trkpt lat="42.97607" lon="0.21156">
        <ele>1288</ele>
        <time>2014-11-08T13:51:55Z</time>
      </trkpt>
      <trkpt lat="42.97641" lon="0.21167">
        <ele>1280</ele>
        <time>2014-11-08T13:52:27Z</time>
      </trkpt>
      <trkpt lat="42.97674" lon="0.21183">
        <ele>1274</ele>
        <time>2014-11-08T13:52:57Z</time>
      </trkpt>
      <trkpt lat="42.97705" lon="0.212">
        <ele>1266</ele>
        <time>2014-11-08T13:53:27Z</time>
      </trkpt>
      <trkpt lat="42.9773" lon="0.21225">
        <ele>1262</ele>
        <time>2014-11-08T13:53:57Z</time>
      </trkpt>
      <trkpt lat="42.97743" lon="0.21236">
        <ele>1260</ele>
        <time>2014-11-08T13:54:13Z</time>
      </trkpt>
      <trkpt lat="42.97744" lon="0.21243">
        <ele>1258</ele>
        <time>2014-11-08T13:54:19Z</time>
      </trkpt>
      <trkpt lat="42.97748" lon="0.2125">
        <ele>1256</ele>
        <time>2014-11-08T13:54:26Z</time>
      </trkpt>
      <trkpt lat="42.97747" lon="0.21252">
        <ele>1254</ele>
        <time>2014-11-08T13:54:28Z</time>
      </trkpt>
      <trkpt lat="42.97753" lon="0.21261">
        <ele>1250</ele>
        <time>2014-11-08T13:54:37Z</time>
      </trkpt>
      <trkpt lat="42.97771" lon="0.21279">
        <ele>1244</ele>
        <time>2014-11-08T13:54:57Z</time>
      </trkpt>
      <trkpt lat="42.97771" lon="0.21282">
        <ele>1243</ele>
        <time>2014-11-08T13:54:59Z</time>
      </trkpt>
      <trkpt lat="42.97773" lon="0.21288">
        <ele>1243</ele>
        <time>2014-11-08T13:55:04Z</time>
      </trkpt>
      <trkpt lat="42.97799" lon="0.21311">
        <ele>1240</ele>
        <time>2014-11-08T13:55:35Z</time>
      </trkpt>
      <trkpt lat="42.97818" lon="0.21338">
        <ele>1233</ele>
        <time>2014-11-08T13:56:01Z</time>
      </trkpt>
      <trkpt lat="42.97819" lon="0.2134">
        <ele>1233</ele>
        <time>2014-11-08T13:56:03Z</time>
      </trkpt>
      <trkpt lat="42.97819" lon="0.21343">
        <ele>1232</ele>
        <time>2014-11-08T13:56:05Z</time>
      </trkpt>
      <trkpt lat="42.97819" lon="0.21351">
        <ele>1231</ele>
        <time>2014-11-08T13:56:15Z</time>
      </trkpt>
      <trkpt lat="42.9783" lon="0.21347">
        <ele>1233</ele>
        <time>2014-11-08T13:56:37Z</time>
      </trkpt>
      <trkpt lat="42.97834" lon="0.21348">
        <ele>1229</ele>
        <time>2014-11-08T13:56:42Z</time>
      </trkpt>
      <trkpt lat="42.97837" lon="0.21354">
        <ele>1227</ele>
        <time>2014-11-08T13:56:47Z</time>
      </trkpt>
      <trkpt lat="42.97837" lon="0.21356">
        <ele>1226</ele>
        <time>2014-11-08T13:56:49Z</time>
      </trkpt>
      <trkpt lat="42.97837" lon="0.21358">
        <ele>1226</ele>
        <time>2014-11-08T13:58:55Z</time>
      </trkpt>
      <trkpt lat="42.97836" lon="0.2136">
        <ele>1225</ele>
        <time>2014-11-08T13:59:13Z</time>
      </trkpt>
      <trkpt lat="42.97834" lon="0.21361">
        <ele>1225</ele>
        <time>2014-11-08T13:59:17Z</time>
      </trkpt>
      <trkpt lat="42.97832" lon="0.21362">
        <ele>1230</ele>
        <time>2014-11-08T13:59:19Z</time>
      </trkpt>
      <trkpt lat="42.97823" lon="0.21368">
        <ele>1229</ele>
        <time>2014-11-08T13:59:29Z</time>
      </trkpt>
      <trkpt lat="42.97823" lon="0.21369">
        <ele>1228</ele>
        <time>2014-11-08T13:59:37Z</time>
      </trkpt>
      <trkpt lat="42.97821" lon="0.2137">
        <ele>1228</ele>
        <time>2014-11-08T14:00:59Z</time>
      </trkpt>
      <trkpt lat="42.97823" lon="0.21373">
        <ele>1228</ele>
        <time>2014-11-08T14:06:12Z</time>
      </trkpt>
      <trkpt lat="42.97846" lon="0.21405">
        <ele>1219</ele>
        <time>2014-11-08T14:06:38Z</time>
      </trkpt>
      <trkpt lat="42.97855" lon="0.21436">
        <ele>1209</ele>
        <time>2014-11-08T14:07:01Z</time>
      </trkpt>
      <trkpt lat="42.97862" lon="0.21436">
        <ele>1209</ele>
        <time>2014-11-08T14:07:07Z</time>
      </trkpt>
      <trkpt lat="42.97866" lon="0.21441">
        <ele>1208</ele>
        <time>2014-11-08T14:07:15Z</time>
      </trkpt>
      <trkpt lat="42.97866" lon="0.21444">
        <ele>1207</ele>
        <time>2014-11-08T14:07:19Z</time>
      </trkpt>
      <trkpt lat="42.97868" lon="0.21444">
        <ele>1207</ele>
        <time>2014-11-08T14:07:23Z</time>
      </trkpt>
      <trkpt lat="42.97869" lon="0.21446">
        <ele>1207</ele>
        <time>2014-11-08T14:07:25Z</time>
      </trkpt>
      <trkpt lat="42.9787" lon="0.21449">
        <ele>1207</ele>
        <time>2014-11-08T14:07:36Z</time>
      </trkpt>
      <trkpt lat="42.97869" lon="0.21452">
        <ele>1206</ele>
        <time>2014-11-08T14:07:39Z</time>
      </trkpt>
      <trkpt lat="42.97854" lon="0.21462">
        <ele>1206</ele>
        <time>2014-11-08T14:07:56Z</time>
      </trkpt>
      <trkpt lat="42.97853" lon="0.21464">
        <ele>1205</ele>
        <time>2014-11-08T14:07:58Z</time>
      </trkpt>
      <trkpt lat="42.97853" lon="0.21466">
        <ele>1205</ele>
        <time>2014-11-08T14:08:05Z</time>
      </trkpt>
      <trkpt lat="42.97851" lon="0.21467">
        <ele>1205</ele>
        <time>2014-11-08T14:08:13Z</time>
      </trkpt>
      <trkpt lat="42.97853" lon="0.21468">
        <ele>1205</ele>
        <time>2014-11-08T14:08:24Z</time>
      </trkpt>
      <trkpt lat="42.97856" lon="0.21468">
        <ele>1205</ele>
        <time>2014-11-08T14:08:27Z</time>
      </trkpt>
      <trkpt lat="42.97866" lon="0.21461">
        <ele>1205</ele>
        <time>2014-11-08T14:08:51Z</time>
      </trkpt>
      <trkpt lat="42.97865" lon="0.21464">
        <ele>1205</ele>
        <time>2014-11-08T14:09:04Z</time>
      </trkpt>
      <trkpt lat="42.97863" lon="0.21466">
        <ele>1205</ele>
        <time>2014-11-08T14:09:07Z</time>
      </trkpt>
      <trkpt lat="42.97861" lon="0.21467">
        <ele>1205</ele>
        <time>2014-11-08T14:09:09Z</time>
      </trkpt>
      <trkpt lat="42.97842" lon="0.2147">
        <ele>1204</ele>
        <time>2014-11-08T14:09:27Z</time>
      </trkpt>
      <trkpt lat="42.97838" lon="0.21467">
        <ele>1205</ele>
        <time>2014-11-08T14:09:45Z</time>
      </trkpt>
      <trkpt lat="42.97834" lon="0.21464">
        <ele>1205</ele>
        <time>2014-11-08T14:09:50Z</time>
      </trkpt>
      <trkpt lat="42.97831" lon="0.21461">
        <ele>1204</ele>
        <time>2014-11-08T14:10:07Z</time>
      </trkpt>
      <trkpt lat="42.97827" lon="0.21457">
        <ele>1205</ele>
        <time>2014-11-08T14:10:12Z</time>
      </trkpt>
      <trkpt lat="42.97823" lon="0.21454">
        <ele>1205</ele>
        <time>2014-11-08T14:10:15Z</time>
      </trkpt>
      <trkpt lat="42.97817" lon="0.21453">
        <ele>1205</ele>
        <time>2014-11-08T14:10:17Z</time>
      </trkpt>
      <trkpt lat="42.97813" lon="0.21453">
        <ele>1205</ele>
        <time>2014-11-08T14:10:21Z</time>
      </trkpt>
      <trkpt lat="42.97808" lon="0.21453">
        <ele>1205</ele>
        <time>2014-11-08T14:10:30Z</time>
      </trkpt>
      <trkpt lat="42.97803" lon="0.21451">
        <ele>1205</ele>
        <time>2014-11-08T14:10:34Z</time>
      </trkpt>
      <trkpt lat="42.97798" lon="0.21446">
        <ele>1205</ele>
        <time>2014-11-08T14:10:39Z</time>
      </trkpt>
      <trkpt lat="42.97769" lon="0.21439">
        <ele>1205</ele>
        <time>2014-11-08T14:10:58Z</time>
      </trkpt>
      <trkpt lat="42.97768" lon="0.21438">
        <ele>1205</ele>
        <time>2014-11-08T14:11:01Z</time>
      </trkpt>
      <trkpt lat="42.97767" lon="0.21437">
        <ele>1205</ele>
        <time>2014-11-08T14:11:12Z</time>
      </trkpt>
      <trkpt lat="42.97765" lon="0.21438">
        <ele>1205</ele>
        <time>2014-11-08T14:11:23Z</time>
      </trkpt>
      <trkpt lat="42.97751" lon="0.21438">
        <ele>1206</ele>
        <time>2014-11-08T14:11:54Z</time>
      </trkpt>
      <trkpt lat="42.97719" lon="0.21438">
        <ele>1193</ele>
        <time>2014-11-08T14:12:24Z</time>
      </trkpt>
      <trkpt lat="42.97698" lon="0.21445">
        <ele>1189</ele>
        <time>2014-11-08T14:12:54Z</time>
      </trkpt>
      <trkpt lat="42.97683" lon="0.21446">
        <ele>1188</ele>
        <time>2014-11-08T14:13:09Z</time>
      </trkpt>
      <trkpt lat="42.97678" lon="0.21443">
        <ele>1189</ele>
        <time>2014-11-08T14:13:12Z</time>
      </trkpt>
      <trkpt lat="42.97636" lon="0.21453">
        <ele>1179</ele>
        <time>2014-11-08T14:13:42Z</time>
      </trkpt>
      <trkpt lat="42.97616" lon="0.21461">
        <ele>1177</ele>
        <time>2014-11-08T14:14:04Z</time>
      </trkpt>
      <trkpt lat="42.97607" lon="0.21475">
        <ele>1173</ele>
        <time>2014-11-08T14:14:20Z</time>
      </trkpt>
      <trkpt lat="42.97607" lon="0.21482">
        <ele>1172</ele>
        <time>2014-11-08T14:14:27Z</time>
      </trkpt>
      <trkpt lat="42.97594" lon="0.21511">
        <ele>1155</ele>
        <time>2014-11-08T14:14:57Z</time>
      </trkpt>
      <trkpt lat="42.97593" lon="0.21523">
        <ele>1152</ele>
        <time>2014-11-08T14:15:09Z</time>
      </trkpt>
      <trkpt lat="42.97577" lon="0.21545">
        <ele>1156</ele>
        <time>2014-11-08T14:15:58Z</time>
      </trkpt>
      <trkpt lat="42.97575" lon="0.21551">
        <ele>1155</ele>
        <time>2014-11-08T14:16:06Z</time>
      </trkpt>
      <trkpt lat="42.97571" lon="0.21555">
        <ele>1154</ele>
        <time>2014-11-08T14:16:18Z</time>
      </trkpt>
      <trkpt lat="42.97543" lon="0.21587">
        <ele>1138</ele>
        <time>2014-11-08T14:16:49Z</time>
      </trkpt>
      <trkpt lat="42.97541" lon="0.21594">
        <ele>1138</ele>
        <time>2014-11-08T14:16:53Z</time>
      </trkpt>
      <trkpt lat="42.97507" lon="0.21634">
        <ele>1136</ele>
        <time>2014-11-08T14:17:24Z</time>
      </trkpt>
      <trkpt lat="42.97498" lon="0.21642">
        <ele>1143</ele>
        <time>2014-11-08T14:17:31Z</time>
      </trkpt>
      <trkpt lat="42.97496" lon="0.21648">
        <ele>1142</ele>
        <time>2014-11-08T14:17:34Z</time>
      </trkpt>
      <trkpt lat="42.97485" lon="0.21663">
        <ele>1140</ele>
        <time>2014-11-08T14:17:47Z</time>
      </trkpt>
      <trkpt lat="42.97482" lon="0.2167">
        <ele>1126</ele>
        <time>2014-11-08T14:17:51Z</time>
      </trkpt>
      <trkpt lat="42.9748" lon="0.21675">
        <ele>1125</ele>
        <time>2014-11-08T14:17:57Z</time>
      </trkpt>
      <trkpt lat="42.97479" lon="0.21681">
        <ele>1124</ele>
        <time>2014-11-08T14:18:34Z</time>
      </trkpt>
      <trkpt lat="42.97479" lon="0.21685">
        <ele>1124</ele>
        <time>2014-11-08T14:18:45Z</time>
      </trkpt>
      <trkpt lat="42.97478" lon="0.21689">
        <ele>1123</ele>
        <time>2014-11-08T14:19:38Z</time>
      </trkpt>
      <trkpt lat="42.97477" lon="0.21691">
        <ele>1122</ele>
        <time>2014-11-08T14:19:40Z</time>
      </trkpt>
      <trkpt lat="42.97478" lon="0.21703">
        <ele>1120</ele>
        <time>2014-11-08T14:19:49Z</time>
      </trkpt>
      <trkpt lat="42.97477" lon="0.21705">
        <ele>1119</ele>
        <time>2014-11-08T14:19:51Z</time>
      </trkpt>
      <trkpt lat="42.97468" lon="0.21712">
        <ele>1118</ele>
        <time>2014-11-08T14:20:01Z</time>
      </trkpt>
      <trkpt lat="42.97467" lon="0.21714">
        <ele>1117</ele>
        <time>2014-11-08T14:20:04Z</time>
      </trkpt>
      <trkpt lat="42.97461" lon="0.21727">
        <ele>1115</ele>
        <time>2014-11-08T14:20:38Z</time>
      </trkpt>
      <trkpt lat="42.97455" lon="0.21736">
        <ele>1114</ele>
        <time>2014-11-08T14:20:54Z</time>
      </trkpt>
      <trkpt lat="42.97451" lon="0.21741">
        <ele>1113</ele>
        <time>2014-11-08T14:21:16Z</time>
      </trkpt>
      <trkpt lat="42.97447" lon="0.21744">
        <ele>1112</ele>
        <time>2014-11-08T14:21:25Z</time>
      </trkpt>
      <trkpt lat="42.97441" lon="0.21744">
        <ele>1112</ele>
        <time>2014-11-08T14:21:32Z</time>
      </trkpt>
      <trkpt lat="42.97435" lon="0.21759">
        <ele>1094</ele>
        <time>2014-11-08T14:21:52Z</time>
      </trkpt>
      <trkpt lat="42.9742" lon="0.21768">
        <ele>1094</ele>
        <time>2014-11-08T14:22:04Z</time>
      </trkpt>
      <trkpt lat="42.97418" lon="0.21773">
        <ele>1092</ele>
        <time>2014-11-08T14:22:09Z</time>
      </trkpt>
      <trkpt lat="42.97413" lon="0.21782">
        <ele>1084</ele>
        <time>2014-11-08T14:22:26Z</time>
      </trkpt>
      <trkpt lat="42.97415" lon="0.21789">
        <ele>1082</ele>
        <time>2014-11-08T14:22:31Z</time>
      </trkpt>
      <trkpt lat="42.9741" lon="0.21789">
        <ele>1082</ele>
        <time>2014-11-08T14:24:31Z</time>
      </trkpt>
      <trkpt lat="42.97408" lon="0.21787">
        <ele>1082</ele>
        <time>2014-11-08T14:25:58Z</time>
      </trkpt>
      <trkpt lat="42.97405" lon="0.21785">
        <ele>1083</ele>
        <time>2014-11-08T14:26:01Z</time>
      </trkpt>
      <trkpt lat="42.97376" lon="0.21748">
        <ele>1106</ele>
        <time>2014-11-08T14:26:32Z</time>
      </trkpt>
      <trkpt lat="42.97372" lon="0.21743">
        <ele>1106</ele>
        <time>2014-11-08T14:26:36Z</time>
      </trkpt>
      <trkpt lat="42.97368" lon="0.21738">
        <ele>1106</ele>
        <time>2014-11-08T14:26:42Z</time>
      </trkpt>
      <trkpt lat="42.97365" lon="0.21732">
        <ele>1106</ele>
        <time>2014-11-08T14:26:46Z</time>
      </trkpt>
      <trkpt lat="42.97362" lon="0.21726">
        <ele>1107</ele>
        <time>2014-11-08T14:26:50Z</time>
      </trkpt>
      <trkpt lat="42.97357" lon="0.21725">
        <ele>1106</ele>
        <time>2014-11-08T14:26:54Z</time>
      </trkpt>
      <trkpt lat="42.97353" lon="0.21722">
        <ele>1107</ele>
        <time>2014-11-08T14:27:00Z</time>
      </trkpt>
      <trkpt lat="42.97347" lon="0.21721">
        <ele>1106</ele>
        <time>2014-11-08T14:27:05Z</time>
      </trkpt>
      <trkpt lat="42.97339" lon="0.21727">
        <ele>1103</ele>
        <time>2014-11-08T14:27:23Z</time>
      </trkpt>
      <trkpt lat="42.9732" lon="0.21736">
        <ele>1098</ele>
        <time>2014-11-08T14:27:37Z</time>
      </trkpt>
      <trkpt lat="42.97317" lon="0.2174">
        <ele>1097</ele>
        <time>2014-11-08T14:27:40Z</time>
      </trkpt>
      <trkpt lat="42.97308" lon="0.21744">
        <ele>1098</ele>
        <time>2014-11-08T14:27:47Z</time>
      </trkpt>
      <trkpt lat="42.97291" lon="0.21736">
        <ele>1100</ele>
        <time>2014-11-08T14:28:07Z</time>
      </trkpt>
      <trkpt lat="42.97287" lon="0.21738">
        <ele>1100</ele>
        <time>2014-11-08T14:28:12Z</time>
      </trkpt>
      <trkpt lat="42.97273" lon="0.21737">
        <ele>1099</ele>
        <time>2014-11-08T14:28:30Z</time>
      </trkpt>
      <trkpt lat="42.97234" lon="0.21731">
        <ele>1098</ele>
        <time>2014-11-08T14:29:03Z</time>
      </trkpt>
      <trkpt lat="42.97203" lon="0.21711">
        <ele>1101</ele>
        <time>2014-11-08T14:29:36Z</time>
      </trkpt>
      <trkpt lat="42.9719" lon="0.21697">
        <ele>1102</ele>
        <time>2014-11-08T14:29:48Z</time>
      </trkpt>
      <trkpt lat="42.97175" lon="0.21694">
        <ele>1103</ele>
        <time>2014-11-08T14:30:01Z</time>
      </trkpt>
      <trkpt lat="42.97171" lon="0.21693">
        <ele>1103</ele>
        <time>2014-11-08T14:30:06Z</time>
      </trkpt>
      <trkpt lat="42.97158" lon="0.21704">
        <ele>1110</ele>
        <time>2014-11-08T14:30:20Z</time>
      </trkpt>
      <trkpt lat="42.97155" lon="0.21709">
        <ele>1109</ele>
        <time>2014-11-08T14:30:23Z</time>
      </trkpt>
      <trkpt lat="42.9714" lon="0.2175">
        <ele>1106</ele>
        <time>2014-11-08T14:30:53Z</time>
      </trkpt>
      <trkpt lat="42.97137" lon="0.21755">
        <ele>1094</ele>
        <time>2014-11-08T14:30:57Z</time>
      </trkpt>
      <trkpt lat="42.97136" lon="0.21759">
        <ele>1094</ele>
        <time>2014-11-08T14:30:59Z</time>
      </trkpt>
      <trkpt lat="42.97134" lon="0.21763">
        <ele>1094</ele>
        <time>2014-11-08T14:31:09Z</time>
      </trkpt>
      <trkpt lat="42.97133" lon="0.21765">
        <ele>1094</ele>
        <time>2014-11-08T14:31:21Z</time>
      </trkpt>
      <trkpt lat="42.97128" lon="0.21771">
        <ele>1095</ele>
        <time>2014-11-08T14:31:27Z</time>
      </trkpt>
      <trkpt lat="42.97127" lon="0.21774">
        <ele>1095</ele>
        <time>2014-11-08T14:31:28Z</time>
      </trkpt>
      <trkpt lat="42.97124" lon="0.21784">
        <ele>1094</ele>
        <time>2014-11-08T14:31:37Z</time>
      </trkpt>
      <trkpt lat="42.97116" lon="0.21791">
        <ele>1094</ele>
        <time>2014-11-08T14:31:59Z</time>
      </trkpt>
      <trkpt lat="42.97082" lon="0.21829">
        <ele>1100</ele>
        <time>2014-11-08T14:32:31Z</time>
      </trkpt>
      <trkpt lat="42.9706" lon="0.21854">
        <ele>1094</ele>
        <time>2014-11-08T14:32:50Z</time>
      </trkpt>
      <trkpt lat="42.97056" lon="0.21858">
        <ele>1093</ele>
        <time>2014-11-08T14:32:53Z</time>
      </trkpt>
      <trkpt lat="42.9705" lon="0.21868">
        <ele>1093</ele>
        <time>2014-11-08T14:33:11Z</time>
      </trkpt>
      <trkpt lat="42.97041" lon="0.21892">
        <ele>1091</ele>
        <time>2014-11-08T14:33:55Z</time>
      </trkpt>
      <trkpt lat="42.97039" lon="0.21897">
        <ele>1091</ele>
        <time>2014-11-08T14:34:06Z</time>
      </trkpt>
      <trkpt lat="42.97041" lon="0.21903">
        <ele>1090</ele>
        <time>2014-11-08T14:34:13Z</time>
      </trkpt>
      <trkpt lat="42.97049" lon="0.21915">
        <ele>1088</ele>
        <time>2014-11-08T14:34:49Z</time>
      </trkpt>
      <trkpt lat="42.97065" lon="0.21927">
        <ele>1085</ele>
        <time>2014-11-08T14:35:13Z</time>
      </trkpt>
      <trkpt lat="42.97067" lon="0.21927">
        <ele>1084</ele>
        <time>2014-11-08T14:35:16Z</time>
      </trkpt>
      <trkpt lat="42.97073" lon="0.21927">
        <ele>1082</ele>
        <time>2014-11-08T14:35:23Z</time>
      </trkpt>
      <trkpt lat="42.97077" lon="0.21929">
        <ele>1082</ele>
        <time>2014-11-08T14:35:28Z</time>
      </trkpt>
      <trkpt lat="42.97088" lon="0.21926">
        <ele>1076</ele>
        <time>2014-11-08T14:35:49Z</time>
      </trkpt>
      <trkpt lat="42.97091" lon="0.21928">
        <ele>1076</ele>
        <time>2014-11-08T14:35:51Z</time>
      </trkpt>
      <trkpt lat="42.97096" lon="0.21929">
        <ele>1076</ele>
        <time>2014-11-08T14:36:05Z</time>
      </trkpt>
      <trkpt lat="42.97099" lon="0.21928">
        <ele>1076</ele>
        <time>2014-11-08T14:36:23Z</time>
      </trkpt>
      <trkpt lat="42.97101" lon="0.21927">
        <ele>1076</ele>
        <time>2014-11-08T14:36:26Z</time>
      </trkpt>
      <trkpt lat="42.97103" lon="0.21926">
        <ele>1076</ele>
        <time>2014-11-08T14:36:30Z</time>
      </trkpt>
      <trkpt lat="42.97105" lon="0.21925">
        <ele>1076</ele>
        <time>2014-11-08T14:36:37Z</time>
      </trkpt>
      <trkpt lat="42.9712" lon="0.21921">
        <ele>1074</ele>
        <time>2014-11-08T14:37:11Z</time>
      </trkpt>
      <trkpt lat="42.97126" lon="0.2192">
        <ele>1073</ele>
        <time>2014-11-08T14:37:18Z</time>
      </trkpt>
      <trkpt lat="42.9713" lon="0.21917">
        <ele>1070</ele>
        <time>2014-11-08T14:37:27Z</time>
      </trkpt>
      <trkpt lat="42.97146" lon="0.21915">
        <ele>1066</ele>
        <time>2014-11-08T14:37:38Z</time>
      </trkpt>
      <trkpt lat="42.97152" lon="0.21913">
        <ele>1064</ele>
        <time>2014-11-08T14:37:41Z</time>
      </trkpt>
      <trkpt lat="42.97159" lon="0.21911">
        <ele>1061</ele>
        <time>2014-11-08T14:38:13Z</time>
      </trkpt>
      <trkpt lat="42.9717" lon="0.21908">
        <ele>1055</ele>
        <time>2014-11-08T14:38:54Z</time>
      </trkpt>
      <trkpt lat="42.97173" lon="0.21905">
        <ele>1055</ele>
        <time>2014-11-08T14:39:31Z</time>
      </trkpt>
      <trkpt lat="42.9718" lon="0.21903">
        <ele>1055</ele>
        <time>2014-11-08T14:40:27Z</time>
      </trkpt>
      <trkpt lat="42.97182" lon="0.21904">
        <ele>1055</ele>
        <time>2014-11-08T14:40:30Z</time>
      </trkpt>
      <trkpt lat="42.9719" lon="0.21904">
        <ele>1054</ele>
        <time>2014-11-08T14:40:38Z</time>
      </trkpt>
      <trkpt lat="42.97193" lon="0.21903">
        <ele>1054</ele>
        <time>2014-11-08T14:41:20Z</time>
      </trkpt>
      <trkpt lat="42.97197" lon="0.21901">
        <ele>1054</ele>
        <time>2014-11-08T14:42:11Z</time>
      </trkpt>
      <trkpt lat="42.97202" lon="0.219">
        <ele>1053</ele>
        <time>2014-11-08T14:42:51Z</time>
      </trkpt>
      <trkpt lat="42.9721" lon="0.21898">
        <ele>1052</ele>
        <time>2014-11-08T14:43:10Z</time>
      </trkpt>
      <trkpt lat="42.97239" lon="0.21903">
        <ele>1048</ele>
        <time>2014-11-08T14:43:44Z</time>
      </trkpt>
      <trkpt lat="42.97243" lon="0.21907">
        <ele>1046</ele>
        <time>2014-11-08T14:44:17Z</time>
      </trkpt>
      <trkpt lat="42.97275" lon="0.21924">
        <ele>1041</ele>
        <time>2014-11-08T14:44:38Z</time>
      </trkpt>
      <trkpt lat="42.97294" lon="0.2194">
        <ele>1040</ele>
        <time>2014-11-08T14:44:56Z</time>
      </trkpt>
      <trkpt lat="42.97295" lon="0.2194">
        <ele>1040</ele>
        <time>2014-11-08T14:45:00Z</time>
      </trkpt>
      <trkpt lat="42.97297" lon="0.21942">
        <ele>1040</ele>
        <time>2014-11-08T14:45:05Z</time>
      </trkpt>
      <trkpt lat="42.97303" lon="0.21949">
        <ele>1040</ele>
        <time>2014-11-08T14:45:12Z</time>
      </trkpt>
      <trkpt lat="42.97305" lon="0.21957">
        <ele>1040</ele>
        <time>2014-11-08T14:45:22Z</time>
      </trkpt>
      <trkpt lat="42.97308" lon="0.21959">
        <ele>1040</ele>
        <time>2014-11-08T14:45:25Z</time>
      </trkpt>
      <trkpt lat="42.97309" lon="0.21962">
        <ele>1040</ele>
        <time>2014-11-08T14:45:27Z</time>
      </trkpt>
      <trkpt lat="42.97311" lon="0.21964">
        <ele>1040</ele>
        <time>2014-11-08T14:45:30Z</time>
      </trkpt>
      <trkpt lat="42.97312" lon="0.21966">
        <ele>1040</ele>
        <time>2014-11-08T14:45:34Z</time>
      </trkpt>
      <trkpt lat="42.97314" lon="0.21968">
        <ele>1040</ele>
        <time>2014-11-08T14:45:37Z</time>
      </trkpt>
      <trkpt lat="42.97315" lon="0.21971">
        <ele>1039</ele>
        <time>2014-11-08T14:45:39Z</time>
      </trkpt>
      <trkpt lat="42.97319" lon="0.21975">
        <ele>1039</ele>
        <time>2014-11-08T14:45:49Z</time>
      </trkpt>
      <trkpt lat="42.9732" lon="0.21977">
        <ele>1039</ele>
        <time>2014-11-08T14:45:53Z</time>
      </trkpt>
      <trkpt lat="42.97325" lon="0.21985">
        <ele>1038</ele>
        <time>2014-11-08T14:45:59Z</time>
      </trkpt>
      <trkpt lat="42.97328" lon="0.21988">
        <ele>1037</ele>
        <time>2014-11-08T14:46:01Z</time>
      </trkpt>
      <trkpt lat="42.9733" lon="0.21991">
        <ele>1036</ele>
        <time>2014-11-08T14:46:03Z</time>
      </trkpt>
      <trkpt lat="42.97332" lon="0.21993">
        <ele>1035</ele>
        <time>2014-11-08T14:46:07Z</time>
      </trkpt>
      <trkpt lat="42.97333" lon="0.21995">
        <ele>1035</ele>
        <time>2014-11-08T14:46:09Z</time>
      </trkpt>
      <trkpt lat="42.97334" lon="0.21998">
        <ele>1032</ele>
        <time>2014-11-08T14:46:10Z</time>
      </trkpt>
      <trkpt lat="42.9734" lon="0.22006">
        <ele>1032</ele>
        <time>2014-11-08T14:46:30Z</time>
      </trkpt>
      <trkpt lat="42.97345" lon="0.22008">
        <ele>1032</ele>
        <time>2014-11-08T14:46:52Z</time>
      </trkpt>
      <trkpt lat="42.97347" lon="0.22008">
        <ele>1031</ele>
        <time>2014-11-08T14:46:56Z</time>
      </trkpt>
      <trkpt lat="42.97348" lon="0.2201">
        <ele>1031</ele>
        <time>2014-11-08T14:47:06Z</time>
      </trkpt>
      <trkpt lat="42.97349" lon="0.22013">
        <ele>1031</ele>
        <time>2014-11-08T14:47:08Z</time>
      </trkpt>
      <trkpt lat="42.97351" lon="0.22016">
        <ele>1031</ele>
        <time>2014-11-08T14:47:10Z</time>
      </trkpt>
      <trkpt lat="42.97352" lon="0.22018">
        <ele>1031</ele>
        <time>2014-11-08T14:47:12Z</time>
      </trkpt>
      <trkpt lat="42.97353" lon="0.2202">
        <ele>1031</ele>
        <time>2014-11-08T14:47:15Z</time>
      </trkpt>
      <trkpt lat="42.97358" lon="0.22028">
        <ele>1031</ele>
        <time>2014-11-08T14:47:22Z</time>
      </trkpt>
      <trkpt lat="42.97359" lon="0.2203">
        <ele>1031</ele>
        <time>2014-11-08T14:47:24Z</time>
      </trkpt>
      <trkpt lat="42.97362" lon="0.22033">
        <ele>1031</ele>
        <time>2014-11-08T14:47:34Z</time>
      </trkpt>
      <trkpt lat="42.97363" lon="0.22034">
        <ele>1031</ele>
        <time>2014-11-08T14:47:36Z</time>
      </trkpt>
      <trkpt lat="42.97386" lon="0.22066">
        <ele>1031</ele>
        <time>2014-11-08T14:48:03Z</time>
      </trkpt>
      <trkpt lat="42.97407" lon="0.22092">
        <ele>1038</ele>
        <time>2014-11-08T14:48:33Z</time>
      </trkpt>
      <trkpt lat="42.97414" lon="0.22098">
        <ele>1039</ele>
        <time>2014-11-08T14:48:41Z</time>
      </trkpt>
      <trkpt lat="42.97416" lon="0.22099">
        <ele>1039</ele>
        <time>2014-11-08T14:48:43Z</time>
      </trkpt>
      <trkpt lat="42.97419" lon="0.221">
        <ele>1028</ele>
        <time>2014-11-08T14:48:51Z</time>
      </trkpt>
      <trkpt lat="42.97429" lon="0.22107">
        <ele>1028</ele>
        <time>2014-11-08T14:49:16Z</time>
      </trkpt>
      <trkpt lat="42.97437" lon="0.22116">
        <ele>1028</ele>
        <time>2014-11-08T14:49:30Z</time>
      </trkpt>
      <trkpt lat="42.97446" lon="0.22125">
        <ele>1028</ele>
        <time>2014-11-08T14:49:47Z</time>
      </trkpt>
      <trkpt lat="42.97448" lon="0.22129">
        <ele>1029</ele>
        <time>2014-11-08T14:50:01Z</time>
      </trkpt>
      <trkpt lat="42.97451" lon="0.22133">
        <ele>1029</ele>
        <time>2014-11-08T14:50:05Z</time>
      </trkpt>
      <trkpt lat="42.97459" lon="0.2214">
        <ele>1029</ele>
        <time>2014-11-08T14:50:11Z</time>
      </trkpt>
      <trkpt lat="42.97465" lon="0.22148">
        <ele>1029</ele>
        <time>2014-11-08T14:50:17Z</time>
      </trkpt>
      <trkpt lat="42.9748" lon="0.22166">
        <ele>1028</ele>
        <time>2014-11-08T14:50:35Z</time>
      </trkpt>
      <trkpt lat="42.97488" lon="0.22173">
        <ele>1037</ele>
        <time>2014-11-08T14:50:42Z</time>
      </trkpt>
      <trkpt lat="42.97525" lon="0.2221">
        <ele>1028</ele>
        <time>2014-11-08T14:51:18Z</time>
      </trkpt>
      <trkpt lat="42.97531" lon="0.22213">
        <ele>1028</ele>
        <time>2014-11-08T14:51:49Z</time>
      </trkpt>
      <trkpt lat="42.97568" lon="0.22237">
        <ele>1025</ele>
        <time>2014-11-08T14:52:24Z</time>
      </trkpt>
      <trkpt lat="42.97576" lon="0.22242">
        <ele>1025</ele>
        <time>2014-11-08T14:52:42Z</time>
      </trkpt>
      <trkpt lat="42.97584" lon="0.22249">
        <ele>1023</ele>
        <time>2014-11-08T14:53:02Z</time>
      </trkpt>
      <trkpt lat="42.97614" lon="0.22292">
        <ele>1019</ele>
        <time>2014-11-08T14:53:32Z</time>
      </trkpt>
      <trkpt lat="42.97647" lon="0.22327">
        <ele>1014</ele>
        <time>2014-11-08T14:54:04Z</time>
      </trkpt>
      <trkpt lat="42.97676" lon="0.22367">
        <ele>1005</ele>
        <time>2014-11-08T14:54:34Z</time>
      </trkpt>
      <trkpt lat="42.9768" lon="0.22371">
        <ele>1004</ele>
        <time>2014-11-08T14:54:40Z</time>
      </trkpt>
      <trkpt lat="42.97684" lon="0.22376">
        <ele>1004</ele>
        <time>2014-11-08T14:54:44Z</time>
      </trkpt>
      <trkpt lat="42.97689" lon="0.2238">
        <ele>1004</ele>
        <time>2014-11-08T14:54:48Z</time>
      </trkpt>
      <trkpt lat="42.97692" lon="0.22383">
        <ele>1004</ele>
        <time>2014-11-08T14:54:55Z</time>
      </trkpt>
      <trkpt lat="42.97695" lon="0.22388">
        <ele>1004</ele>
        <time>2014-11-08T14:55:03Z</time>
      </trkpt>
      <trkpt lat="42.97698" lon="0.22394">
        <ele>1004</ele>
        <time>2014-11-08T14:55:07Z</time>
      </trkpt>
      <trkpt lat="42.97701" lon="0.22398">
        <ele>1004</ele>
        <time>2014-11-08T14:55:11Z</time>
      </trkpt>
      <trkpt lat="42.97705" lon="0.22402">
        <ele>1003</ele>
        <time>2014-11-08T14:55:25Z</time>
      </trkpt>
      <trkpt lat="42.97708" lon="0.22408">
        <ele>1003</ele>
        <time>2014-11-08T14:55:34Z</time>
      </trkpt>
      <trkpt lat="42.97734" lon="0.22429">
        <ele>1002</ele>
        <time>2014-11-08T14:55:58Z</time>
      </trkpt>
      <trkpt lat="42.97752" lon="0.22438">
        <ele>987</ele>
        <time>2014-11-08T14:56:13Z</time>
      </trkpt>
      <trkpt lat="42.97769" lon="0.22443">
        <ele>985</ele>
        <time>2014-11-08T14:56:44Z</time>
      </trkpt>
      <trkpt lat="42.97806" lon="0.22469">
        <ele>981</ele>
        <time>2014-11-08T14:57:14Z</time>
      </trkpt>
      <trkpt lat="42.97822" lon="0.22482">
        <ele>979</ele>
        <time>2014-11-08T14:57:27Z</time>
      </trkpt>
      <trkpt lat="42.97854" lon="0.22492">
        <ele>969</ele>
        <time>2014-11-08T14:58:44Z</time>
      </trkpt>
      <trkpt lat="42.97895" lon="0.22487">
        <ele>964</ele>
        <time>2014-11-08T14:59:14Z</time>
      </trkpt>
      <trkpt lat="42.97905" lon="0.22489">
        <ele>963</ele>
        <time>2014-11-08T14:59:20Z</time>
      </trkpt>
      <trkpt lat="42.9791" lon="0.22488">
        <ele>963</ele>
        <time>2014-11-08T14:59:23Z</time>
      </trkpt>
      <trkpt lat="42.97946" lon="0.22484">
        <ele>959</ele>
        <time>2014-11-08T14:59:58Z</time>
      </trkpt>
      <trkpt lat="42.97975" lon="0.22481">
        <ele>958</ele>
        <time>2014-11-08T15:00:34Z</time>
      </trkpt>
      <trkpt lat="42.9798" lon="0.22482">
        <ele>958</ele>
        <time>2014-11-08T15:00:50Z</time>
      </trkpt>
      <trkpt lat="42.98014" lon="0.22474">
        <ele>954</ele>
        <time>2014-11-08T15:01:24Z</time>
      </trkpt>
      <trkpt lat="42.98052" lon="0.22466">
        <ele>952</ele>
        <time>2014-11-08T15:01:58Z</time>
      </trkpt>
      <trkpt lat="42.9808" lon="0.22458">
        <ele>951</ele>
        <time>2014-11-08T15:02:29Z</time>
      </trkpt>
      <trkpt lat="42.98114" lon="0.22455">
        <ele>946</ele>
        <time>2014-11-08T15:03:12Z</time>
      </trkpt>
      <trkpt lat="42.98119" lon="0.22454">
        <ele>946</ele>
        <time>2014-11-08T15:03:16Z</time>
      </trkpt>
      <trkpt lat="42.98124" lon="0.22456">
        <ele>945</ele>
        <time>2014-11-08T15:03:26Z</time>
      </trkpt>
      <trkpt lat="42.98166" lon="0.22448">
        <ele>945</ele>
        <time>2014-11-08T15:03:53Z</time>
      </trkpt>
      <trkpt lat="42.98197" lon="0.22444">
        <ele>940</ele>
        <time>2014-11-08T15:04:23Z</time>
      </trkpt>
      <trkpt lat="42.98209" lon="0.22441">
        <ele>939</ele>
        <time>2014-11-08T15:04:29Z</time>
      </trkpt>
      <trkpt lat="42.98214" lon="0.22439">
        <ele>939</ele>
        <time>2014-11-08T15:04:32Z</time>
      </trkpt>
      <trkpt lat="42.9822" lon="0.22436">
        <ele>939</ele>
        <time>2014-11-08T15:04:39Z</time>
      </trkpt>
      <trkpt lat="42.98223" lon="0.22434">
        <ele>939</ele>
        <time>2014-11-08T15:04:45Z</time>
      </trkpt>
      <trkpt lat="42.98224" lon="0.22434">
        <ele>939</ele>
        <time>2014-11-08T15:04:55Z</time>
      </trkpt>
      <trkpt lat="42.98228" lon="0.22436">
        <ele>938</ele>
        <time>2014-11-08T15:05:10Z</time>
      </trkpt>
      <trkpt lat="42.98254" lon="0.22433">
        <ele>933</ele>
        <time>2014-11-08T15:05:41Z</time>
      </trkpt>
      <trkpt lat="42.98289" lon="0.22424">
        <ele>931</ele>
        <time>2014-11-08T15:06:11Z</time>
      </trkpt>
      <trkpt lat="42.98317" lon="0.2242">
        <ele>931</ele>
        <time>2014-11-08T15:06:43Z</time>
      </trkpt>
      <trkpt lat="42.98345" lon="0.22416">
        <ele>930</ele>
        <time>2014-11-08T15:07:15Z</time>
      </trkpt>
      <trkpt lat="42.98355" lon="0.22416">
        <ele>929</ele>
        <time>2014-11-08T15:07:36Z</time>
      </trkpt>
      <trkpt lat="42.98356" lon="0.22414">
        <ele>928</ele>
        <time>2014-11-08T15:07:49Z</time>
      </trkpt>
      <trkpt lat="42.98365" lon="0.22414">
        <ele>928</ele>
        <time>2014-11-08T15:08:05Z</time>
      </trkpt>
      <trkpt lat="42.98369" lon="0.22411">
        <ele>928</ele>
        <time>2014-11-08T15:08:18Z</time>
      </trkpt>
      <trkpt lat="42.98388" lon="0.22413">
        <ele>928</ele>
        <time>2014-11-08T15:08:51Z</time>
      </trkpt>
      <trkpt lat="42.98445" lon="0.22407">
        <ele>927</ele>
        <time>2014-11-08T15:09:22Z</time>
      </trkpt>
      <trkpt lat="42.98484" lon="0.22401">
        <ele>926</ele>
        <time>2014-11-08T15:09:54Z</time>
      </trkpt>
      <trkpt lat="42.98488" lon="0.22397">
        <ele>926</ele>
        <time>2014-11-08T15:10:07Z</time>
      </trkpt>
      <trkpt lat="42.98493" lon="0.22397">
        <ele>926</ele>
        <time>2014-11-08T15:10:39Z</time>
      </trkpt>
      <trkpt lat="42.985" lon="0.22405">
        <ele>923</ele>
        <time>2014-11-08T15:11:00Z</time>
      </trkpt>
      <trkpt lat="42.98531" lon="0.224">
        <ele>914</ele>
        <time>2014-11-08T15:11:30Z</time>
      </trkpt>
      <trkpt lat="42.98541" lon="0.22399">
        <ele>912</ele>
        <time>2014-11-08T15:12:00Z</time>
      </trkpt>
      <trkpt lat="42.98556" lon="0.22402">
        <ele>909</ele>
        <time>2014-11-08T15:12:38Z</time>
      </trkpt>
      <trkpt lat="42.98559" lon="0.22402">
        <ele>908</ele>
        <time>2014-11-08T15:12:53Z</time>
      </trkpt>
      <trkpt lat="42.98561" lon="0.22405">
        <ele>907</ele>
        <time>2014-11-08T15:12:58Z</time>
      </trkpt>
      <trkpt lat="42.98562" lon="0.22407">
        <ele>907</ele>
        <time>2014-11-08T15:13:02Z</time>
      </trkpt>
      <trkpt lat="42.98563" lon="0.22413">
        <ele>907</ele>
        <time>2014-11-08T15:13:06Z</time>
      </trkpt>
      <trkpt lat="42.98561" lon="0.22416">
        <ele>907</ele>
        <time>2014-11-08T15:13:19Z</time>
      </trkpt>
      <trkpt lat="42.98561" lon="0.22419">
        <ele>905</ele>
        <time>2014-11-08T15:13:39Z</time>
      </trkpt>
      <trkpt lat="42.98562" lon="0.22421">
        <ele>905</ele>
        <time>2014-11-08T15:13:41Z</time>
      </trkpt>
      <trkpt lat="42.98563" lon="0.22422">
        <ele>905</ele>
        <time>2014-11-08T15:13:47Z</time>
      </trkpt>
      <trkpt lat="42.98564" lon="0.22426">
        <ele>904</ele>
        <time>2014-11-08T15:14:29Z</time>
      </trkpt>
      <trkpt lat="42.98561" lon="0.22437">
        <ele>905</ele>
        <time>2014-11-08T15:14:37Z</time>
      </trkpt>
      <trkpt lat="42.98559" lon="0.22438">
        <ele>905</ele>
        <time>2014-11-08T15:14:39Z</time>
      </trkpt>
      <trkpt lat="42.98555" lon="0.22452">
        <ele>904</ele>
        <time>2014-11-08T15:14:53Z</time>
      </trkpt>
      <trkpt lat="42.98552" lon="0.22453">
        <ele>905</ele>
        <time>2014-11-08T15:14:56Z</time>
      </trkpt>
      <trkpt lat="42.98551" lon="0.22455">
        <ele>905</ele>
        <time>2014-11-08T15:14:59Z</time>
      </trkpt>
      <trkpt lat="42.98546" lon="0.22457">
        <ele>905</ele>
        <time>2014-11-08T15:15:08Z</time>
      </trkpt>
      <trkpt lat="42.98526" lon="0.22476">
        <ele>906</ele>
        <time>2014-11-08T15:15:40Z</time>
      </trkpt>
      <trkpt lat="42.98517" lon="0.22484">
        <ele>906</ele>
        <time>2014-11-08T15:15:50Z</time>
      </trkpt>
      <trkpt lat="42.98503" lon="0.225">
        <ele>903</ele>
        <time>2014-11-08T15:16:32Z</time>
      </trkpt>
      <trkpt lat="42.98466" lon="0.22536">
        <ele>888</ele>
        <time>2014-11-08T15:17:02Z</time>
      </trkpt>
      <trkpt lat="42.98449" lon="0.2256">
        <ele>883</ele>
        <time>2014-11-08T15:17:20Z</time>
      </trkpt>
      <trkpt lat="42.98449" lon="0.22563">
        <ele>883</ele>
        <time>2014-11-08T15:17:23Z</time>
      </trkpt>
      <trkpt lat="42.98448" lon="0.22565">
        <ele>882</ele>
        <time>2014-11-08T15:17:25Z</time>
      </trkpt>
      <trkpt lat="42.98448" lon="0.22568">
        <ele>882</ele>
        <time>2014-11-08T15:17:31Z</time>
      </trkpt>
      <trkpt lat="42.98447" lon="0.22569">
        <ele>882</ele>
        <time>2014-11-08T15:17:36Z</time>
      </trkpt>
      <trkpt lat="42.98445" lon="0.22571">
        <ele>881</ele>
        <time>2014-11-08T15:17:44Z</time>
      </trkpt>
      <trkpt lat="42.98444" lon="0.22574">
        <ele>881</ele>
        <time>2014-11-08T15:17:49Z</time>
      </trkpt>
      <trkpt lat="42.9845" lon="0.22584">
        <ele>866</ele>
        <time>2014-11-08T15:18:00Z</time>
      </trkpt>
    </trkseg>
  </trk>
</gpx>